UA3323 / N633RW 7700 Squawk Report (11th of January, 2022)

Aircraft E170 Reg No. N633RW Age N/A
Model Emb-170 Jet engines 2 First flight 10-04
Registered 31-01-17 Rollout 09-04 Delivered 22-10-04
Construction No. 17000054 Line No. N/A Series 100SE
ADSHEX A84A6D Airline name United Express Owner Republic Airways
Airfield based Indianapolis-International~IN~N First tracked N/A

Flight history for N633RW

Route Flight No Date Playback
Pittsburgh Intl (PIT) - Port Columbus (CMH) UA3324 2022-01-12 06:10:00
???? N/A 2022-01-11 15:29:00
Savannah Hilton Head Intl (SAV) - Newark Liberty Intl (EWR) UA3593 2021-12-31 03:44:00
Washington Dulles International (IAD) - Savannah Hilton Head Intl (SAV) UA3566 2021-12-31 00:56:00
Key West Intl (EYW) - Washington Dulles International (IAD) UA3678 2021-12-30 21:26:00
Newark Liberty Intl (EWR) - Key West Intl (EYW) UA3650 2021-12-30 17:36:00
General Mitchell Intl (MKE) - Newark Liberty Intl (EWR) UA3574 2021-12-30 05:14:00
Newark Liberty Intl (EWR) - General Mitchell Intl (MKE) UA3480 2021-12-30 02:47:00
Key West Intl (EYW) - Newark Liberty Intl (EWR) UA3664 2021-12-29 22:25:00
Washington Dulles International (IAD) - Key West Intl (EYW) UA3552 2021-12-29 19:54:00
Raleigh Durham Intl (RDU) - Washington Dulles International (IAD) UA3689 2021-12-29 01:42:00
Portland Intl Jetport (PWM) - Washington Dulles International (IAD) - Raleigh Durham Intl (RDU) UA3490 2021-12-28 23:53:00
Key West Intl (EYW) - Washington Dulles International (IAD) UA3678 2021-12-28 20:57:00
Newark Liberty Intl (EWR) - Key West Intl (EYW) UA3650 2021-12-28 18:50:00
Louis Armstrong New Orleans Intl (MSY) - Newark Liberty Intl (EWR) UA3621 2021-12-28 04:22:00
Washington Dulles International (IAD) - Louis Armstrong New Orleans Intl (MSY) UA3603 2021-12-28 01:05:00
Key West Intl (EYW) - Washington Dulles International (IAD) UA3678 2021-12-27 21:33:00
Newark Liberty Intl (EWR) - Key West Intl (EYW) UA3650 2021-12-27 17:11:00
Louis Armstrong New Orleans Intl (MSY) - Newark Liberty Intl (EWR) UA3621 2021-12-27 04:32:00
Washington Dulles International (IAD) - Louis Armstrong New Orleans Intl (MSY) UA3603 2021-12-27 01:52:00
Time Lat Lon Altitude Heading Speed Vertical Rate
2022-01-11 15:25:47 GMT 40.442001 -80.047180 2,525 302 183 -768
2022-01-11 15:25:42 GMT 40.439835 -80.043518 2,575 312 183 -768
2022-01-11 15:25:10 GMT 40.414261 -80.038452 3,000 12 186 -832
2022-01-11 15:24:59 GMT 40.405518 -80.040955 3,125 12 186 -832
2022-01-11 15:24:50 GMT 40.396915 -80.043327 3,275 11 185 -896
2022-01-11 15:24:35 GMT 40.385330 -80.046509 3,450 12 186 -64
2022-01-11 15:24:22 GMT 40.374149 -80.049698 3,450 12 186 -64
2022-01-11 15:23:21 GMT 40.321964 -80.081154 3,575 41 236 -256
2022-01-11 15:22:18 GMT 40.269547 -80.148010 5,350 57 269 -2560
2022-01-11 15:22:03 GMT 40.259773 -80.169235 6,000 66 273 -2624
2022-01-11 15:21:56 GMT 40.255646 -80.181580 6,350 66 273 -2496
2022-01-11 15:21:38 GMT 40.246948 -80.207825 7,050 67 277 -2304
2022-01-11 15:21:27 GMT 40.241180 -80.225952 7,475 67 281 -2112
2022-01-11 15:21:12 GMT 40.234402 -80.247765 7,975 68 290 -2432
2022-01-11 15:21:00 GMT 40.228165 -80.267982 8,450 68 290 -2432
2022-01-11 15:20:52 GMT 40.224014 -80.281433 8,775 68 292 -2496
2022-01-11 15:20:24 GMT 40.210098 -80.327942 9,975 54 282 -2560
2022-01-11 15:20:14 GMT 40.205307 -80.343330 10,450 54 282 -2560
2022-01-11 15:19:43 GMT 40.175766 -80.375305 11,550 18 265 -2048
2022-01-11 15:19:26 GMT 40.155121 -80.384468 12,225 19 266 -2304
2022-01-11 15:19:16 GMT 40.144367 -80.389275 12,575 19 266 -2304
2022-01-11 15:18:26 GMT 40.086273 -80.415237 14,750 18 270 -2752
2022-01-11 15:18:19 GMT 40.078171 -80.418861 15,025 19 274 -2560
2022-01-11 15:18:08 GMT 40.063339 -80.425598 15,550 19 280 -2560
2022-01-11 15:17:59 GMT 40.053219 -80.430161 15,900 19 285 -2688
2022-01-11 15:17:48 GMT 40.039856 -80.436157 16,400 18 289 -3136
2022-01-11 15:17:37 GMT 40.023987 -80.443207 17,125 18 288 -3520
2022-01-11 15:17:20 GMT 40.004200 -80.452003 18,025 19 289 -3136
2022-01-11 15:17:18 GMT 40.001129 -80.453377 18,150 19 289 -3072
2022-01-11 15:17:07 GMT 39.986206 -80.460205 18,700 19 293 -2816
2022-01-11 15:16:59 GMT 39.977665 -80.463928 19,025 16 293 -3072
2022-01-11 15:16:56 GMT 39.972870 -80.465614 19,225 14 292 -3136
2022-01-11 15:16:50 GMT 39.964233 -80.467346 24,450 1 283 -3264
2022-01-11 15:16:46 GMT 39.960255 -80.467422 19,725 0 282 -3264
2022-01-11 15:16:34 GMT 39.945545 -80.464371 20,350 347 274 -3264
2022-01-11 15:16:28 GMT 39.937408 -80.460083 20,750 331 271 -3264
2022-01-11 15:16:21 GMT 39.928692 -80.452942 21,200 323 269 -3520
2022-01-11 15:16:10 GMT 39.920078 -80.442139 21,775 312 269 -3776
2022-01-11 15:16:05 GMT 39.915611 -80.434265 22,150 305 271 -3776
2022-01-11 15:15:57 GMT 39.911839 -80.424988 22,875 280 282 -3648
2022-01-11 15:15:53 GMT 39.910351 -80.419312 22,800 288 277 -3840
2022-01-11 15:15:50 GMT 39.909210 -80.410309 23,550 278 284 -3648
2022-01-11 15:15:45 GMT 39.909096 -80.404358 23,325 268 293 -3520
2022-01-11 15:15:39 GMT 39.909622 -80.394905 23,625 265 297 -3520
2022-01-11 15:15:35 GMT 39.910400 -80.385529 23,950 265 299 -3520
2022-01-11 15:15:29 GMT 39.911270 -80.374779 24,300 264 300 -3648
2022-01-11 15:15:23 GMT 39.912071 -80.365051 24,625 264 302 -3712
2022-01-11 15:15:13 GMT 39.913513 -80.348091 25,175 264 304 -3456
2022-01-11 15:15:04 GMT 39.915100 -80.329407 25,750 264 306 -3456
2022-01-11 15:14:55 GMT 39.916534 -80.312805 26,275 264 309 -3328
2022-01-11 15:14:52 GMT 39.916763 -80.309875 26,375 264 309 -3328
2022-01-11 15:14:43 GMT 39.918365 -80.291252 26,850 264 313 -2752
2022-01-11 15:14:34 GMT 39.919876 -80.273216 27,450 264 320 -2944
2022-01-11 15:14:31 GMT 39.920334 -80.267784 27,450 264 320 -2944
2022-01-11 15:14:28 GMT 39.920776 -80.262817 27,550 264 321 -2944
2022-01-11 15:14:21 GMT 39.921803 -80.250488 27,900 264 323 -3072
2022-01-11 15:14:12 GMT 39.923340 -80.231781 28,325 264 326 -2688
2022-01-11 15:14:07 GMT 39.925003 -80.211975 29,125 264 328 -2304
2022-01-11 15:14:02 GMT 39.925003 -80.211975 28,775 264 327 -2496
2022-01-11 15:13:56 GMT 39.925964 -80.200867 29,125 264 331 -1472
2022-01-11 15:13:50 GMT 39.926926 -80.188965 29,175 264 331 -1472
2022-01-11 15:13:46 GMT 39.927521 -80.182007 29,225 264 333 -1024
2022-01-11 15:13:40 GMT 39.928482 -80.170654 29,325 264 333 -1024
2022-01-11 15:13:35 GMT 39.929344 -80.159866 29,475 264 334 -1024
2022-01-11 15:13:31 GMT 39.930176 -80.149841 29,500 264 334 -1024
2022-01-11 15:13:24 GMT 39.931091 -80.138672 29,600 264 335 -1024
2022-01-11 15:13:21 GMT 39.931580 -80.132652 29,650 264 335 -1024
2022-01-11 15:13:18 GMT 39.932182 -80.125412 29,700 264 335 -1024
2022-01-11 15:13:14 GMT 39.932789 -80.118172 29,900 264 337 -960
2022-01-11 15:13:10 GMT 39.933674 -80.107063 29,850 264 337 -960
2022-01-11 15:13:04 GMT 39.934387 -80.098389 29,925 264 337 -1024
2022-01-11 15:13:01 GMT 39.934978 -80.091515 30,000 264 338 -1024
2022-01-11 15:12:58 GMT 39.935535 -80.084404 30,050 264 338 -1088
2022-01-11 15:12:55 GMT 39.936047 -80.078598 30,100 264 338 -1024
2022-01-11 15:12:45 GMT 39.937866 -80.056213 30,275 264 339 -1024
2022-01-11 15:12:37 GMT 39.939026 -80.042145 30,400 264 340 -1024
2022-01-11 15:12:33 GMT 39.939541 -80.035461 30,575 264 341 -1024
2022-01-11 15:12:27 GMT 39.940750 -80.020729 30,575 264 341 -1024
2022-01-11 15:12:24 GMT 39.941162 -80.015564 30,775 264 342 -1024
2022-01-11 15:12:17 GMT 39.942261 -80.002319 30,725 264 343 -1024
2022-01-11 15:12:14 GMT 39.942902 -79.994080 30,800 265 344 -1024
2022-01-11 15:12:10 GMT 39.943638 -79.985397 30,925 264 345 -1024
2022-01-11 15:12:05 GMT 39.944427 -79.975662 30,925 264 345 -1024
2022-01-11 15:12:01 GMT 39.944893 -79.969734 31,000 264 346 -1024
2022-01-11 15:11:58 GMT 39.945591 -79.961433 31,050 265 347 -1024
2022-01-11 15:11:52 GMT 39.946609 -79.948486 31,150 264 348 -960
2022-01-11 15:11:49 GMT 39.947079 -79.943077 31,400 264 350 -1024
2022-01-11 15:11:43 GMT 39.948120 -79.930115 31,300 264 349 -1024
2022-01-11 15:11:37 GMT 39.949127 -79.917923 31,400 264 350 -1024
2022-01-11 15:11:34 GMT 39.949585 -79.911804 31,450 264 351 -960
2022-01-11 15:11:31 GMT 39.950340 -79.902817 31,525 264 352 -1024
2022-01-11 15:11:24 GMT 39.951462 -79.888916 31,625 264 353 -1024
2022-01-11 15:11:18 GMT 39.952789 -79.872620 31,750 265 355 -1024
2022-01-11 15:11:15 GMT 39.952789 -79.872620 31,825 265 355 -1024
2022-01-11 15:11:12 GMT 39.953522 -79.863220 31,825 265 356 -960
2022-01-11 15:11:09 GMT 39.954300 -79.853821 31,875 265 356 -1024
2022-01-11 15:11:06 GMT 39.954300 -79.853821 31,900 265 357 -1024
2022-01-11 15:11:03 GMT 39.954895 -79.846252 31,975 265 357 -832
2022-01-11 15:11:00 GMT 39.955601 -79.837151 32,000 265 357 -192
2022-01-11 15:10:56 GMT 39.956268 -79.828979 32,000 265 357 -64
2022-01-11 15:10:50 GMT 39.957092 -79.818726 32,000 265 357 -64
2022-01-11 15:10:47 GMT 39.957787 -79.809807 32,000 265 357 64
2022-01-11 15:10:44 GMT 39.958191 -79.805115 32,000 265 357 0
2022-01-11 15:10:38 GMT 39.959091 -79.793640 32,000 265 356 0
2022-01-11 15:10:35 GMT 39.959698 -79.785896 32,000 265 356 0
2022-01-11 15:10:30 GMT 39.960571 -79.775146 32,000 265 356 -64
2022-01-11 15:10:27 GMT 39.961094 -79.768730 32,000 265 356 0
2022-01-11 15:10:24 GMT 39.962585 -79.749573 32,000 265 356 -64
2022-01-11 15:10:18 GMT 39.962585 -79.749573 32,000 265 356 0
2022-01-11 15:10:15 GMT 39.963093 -79.743080 32,000 265 356 -64
2022-01-11 15:10:08 GMT 39.964306 -79.727722 32,000 265 356 0
2022-01-11 15:10:03 GMT 39.965050 -79.718353 32,000 265 356 64
2022-01-11 15:09:57 GMT 39.966110 -79.705017 32,000 265 356 -64
2022-01-11 15:09:54 GMT 39.966705 -79.697388 32,000 265 356 64
2022-01-11 15:09:49 GMT 39.967529 -79.687134 32,000 265 356 64
2022-01-11 15:09:46 GMT 39.967850 -79.682983 32,000 265 356 64
2022-01-11 15:09:43 GMT 39.968449 -79.675598 32,000 265 356 0
2022-01-11 15:09:36 GMT 39.969749 -79.658554 32,000 265 356 -64
2022-01-11 15:09:32 GMT 39.970184 -79.653015 32,000 265 356 0
2022-01-11 15:09:26 GMT 39.971382 -79.638145 32,000 265 355 0
2022-01-11 15:09:23 GMT 39.971893 -79.631218 32,000 265 355 64
2022-01-11 15:09:17 GMT 39.972961 -79.617607 32,000 265 355 64
2022-01-11 15:09:14 GMT 39.973343 -79.613098 32,000 265 355 64
2022-01-11 15:09:11 GMT 39.973709 -79.607971 32,000 265 355 0
2022-01-11 15:09:05 GMT 39.974827 -79.593765 32,000 265 354 64
2022-01-11 15:09:01 GMT 39.975525 -79.584465 32,000 265 352 0
2022-01-11 15:08:56 GMT 39.976410 -79.572998 32,000 265 354 0
2022-01-11 15:08:52 GMT 39.976967 -79.565796 32,000 265 353 -64
2022-01-11 15:08:42 GMT 39.978516 -79.545898 32,000 265 352 64
2022-01-11 15:08:39 GMT 39.978970 -79.540390 32,000 265 352 64
2022-01-11 15:08:35 GMT 39.979809 -79.529404 32,000 265 352 0
2022-01-11 15:08:30 GMT 39.980598 -79.519234 32,000 265 352 -64
2022-01-11 15:08:24 GMT 39.981483 -79.507622 32,000 265 352 0
2022-01-11 15:08:19 GMT 39.982681 -79.491821 32,000 265 352 0
2022-01-11 15:08:13 GMT 39.983997 -79.474724 32,000 265 352 0
2022-01-11 15:08:09 GMT 39.983997 -79.474724 32,000 265 352 0
2022-01-11 15:08:01 GMT 39.985291 -79.458130 32,000 265 352 0
2022-01-11 15:07:58 GMT 39.985626 -79.453499 32,000 265 352 0
2022-01-11 15:07:53 GMT 39.986694 -79.440018 32,000 265 352 0
2022-01-11 15:07:49 GMT 39.987076 -79.434509 32,000 265 351 -64
2022-01-11 15:07:44 GMT 39.987907 -79.423973 32,000 265 351 64
2022-01-11 15:07:41 GMT 39.988464 -79.416611 32,000 265 351 0
2022-01-11 15:07:38 GMT 39.988792 -79.412178 32,000 265 351 0
2022-01-11 15:07:33 GMT 39.989815 -79.398689 32,000 265 351 0
2022-01-11 15:07:29 GMT 39.990509 -79.389832 32,000 265 351 128
2022-01-11 15:07:23 GMT 39.991379 -79.378113 32,000 265 351 -64
2022-01-11 15:07:18 GMT 39.992111 -79.368835 32,000 265 350 0
2022-01-11 15:07:12 GMT 39.993122 -79.355125 32,000 265 350 0
2022-01-11 15:07:09 GMT 39.993484 -79.350525 32,000 265 350 -64
2022-01-11 15:07:06 GMT 39.993988 -79.343628 32,000 265 350 -64
2022-01-11 15:07:02 GMT 39.994751 -79.333961 32,000 265 350 64
2022-01-11 15:06:58 GMT 39.995354 -79.325722 32,000 265 350 0
2022-01-11 15:06:49 GMT 39.996735 -79.307556 32,000 265 349 64
2022-01-11 15:06:46 GMT 39.997330 -79.299194 32,000 265 349 0
2022-01-11 15:06:39 GMT 39.998428 -79.284462 32,000 265 349 -64
2022-01-11 15:06:35 GMT 39.998840 -79.279053 32,000 265 349 0
2022-01-11 15:06:32 GMT 39.999405 -79.271973 32,000 265 349 0
2022-01-11 15:06:26 GMT 40.000381 -79.258553 32,000 265 348 64
2022-01-11 15:06:20 GMT 40.001129 -79.248505 32,000 265 348 64
2022-01-11 15:06:16 GMT 40.001873 -79.238457 32,000 265 348 0
2022-01-11 15:06:12 GMT 40.002594 -79.228943 32,000 265 348 0
2022-01-11 15:06:09 GMT 40.003223 -79.220917 32,000 265 348 0
2022-01-11 15:06:05 GMT 40.003502 -79.216728 32,000 265 348 0
2022-01-11 15:06:00 GMT 40.004608 -79.202148 32,000 265 348 0
2022-01-11 15:05:57 GMT 40.004974 -79.197144 32,000 265 348 0
2022-01-11 15:05:54 GMT 40.005222 -79.194199 32,000 265 348 0
2022-01-11 15:05:51 GMT 40.005798 -79.186401 32,000 265 348 64
2022-01-11 15:05:44 GMT 40.006805 -79.172913 32,000 265 348 128
2022-01-11 15:05:41 GMT 40.007401 -79.164551 32,000 265 349 0
2022-01-11 15:05:35 GMT 40.008995 -79.143196 32,000 265 348 128
2022-01-11 15:05:30 GMT 40.008995 -79.143196 32,000 265 348 0
2022-01-11 15:05:25 GMT 40.009926 -79.130653 32,000 265 348 64
2022-01-11 15:05:19 GMT 40.010670 -79.120667 32,000 265 348 0
2022-01-11 15:05:16 GMT 40.011154 -79.113525 32,000 265 348 -64
2022-01-11 15:05:13 GMT 40.012161 -79.100220 32,000 265 348 0
2022-01-11 15:05:10 GMT 40.012161 -79.100220 32,000 265 348 0
2022-01-11 15:05:03 GMT 40.013123 -79.086853 32,000 265 347 0
2022-01-11 15:04:59 GMT 40.013763 -79.078430 32,000 265 347 64
2022-01-11 15:04:56 GMT 40.014359 -79.070068 32,000 265 347 0
2022-01-11 15:04:52 GMT 40.014954 -79.061768 32,000 265 347 64
2022-01-11 15:04:48 GMT 40.015511 -79.054680 32,000 265 347 64
2022-01-11 15:04:45 GMT 40.015930 -79.048882 32,000 265 347 0
2022-01-11 15:04:42 GMT 40.016373 -79.042603 32,000 265 347 0
2022-01-11 15:04:38 GMT 40.016911 -79.035522 32,000 265 346 -64
2022-01-11 15:04:32 GMT 40.018433 -79.014343 32,000 265 346 64
2022-01-11 15:04:28 GMT 40.018433 -79.014343 32,000 265 346 0
2022-01-11 15:04:25 GMT 40.019028 -79.006104 32,000 265 346 -64
2022-01-11 15:04:21 GMT 40.019470 -78.999817 32,000 265 346 -64
2022-01-11 15:04:17 GMT 40.020035 -78.991882 32,000 265 346 0
2022-01-11 15:04:12 GMT 40.020912 -78.980026 32,000 265 346 -64
2022-01-11 15:04:09 GMT 40.021271 -78.974609 32,000 265 346 -64
2022-01-11 15:04:06 GMT 40.021957 -78.965332 32,000 265 346 -64
2022-01-11 15:04:03 GMT 40.022186 -78.962158 32,000 265 346 -64
2022-01-11 15:04:00 GMT 40.023239 -78.947876 32,000 265 347 0
2022-01-11 15:03:57 GMT 40.023239 -78.947876 32,000 265 347 0
2022-01-11 15:03:54 GMT 40.023705 -78.941574 32,000 265 347 64
2022-01-11 15:03:50 GMT 40.024124 -78.935890 32,000 265 347 -64
2022-01-11 15:03:46 GMT 40.024750 -78.927063 32,000 265 347 64
2022-01-11 15:03:43 GMT 40.025482 -78.916382 32,000 265 346 -64
2022-01-11 15:03:39 GMT 40.025799 -78.912483 32,000 265 346 -64
2022-01-11 15:03:36 GMT 40.026169 -78.907104 32,000 265 346 64
2022-01-11 15:03:30 GMT 40.027359 -78.890503 32,000 265 346 -64
2022-01-11 15:03:27 GMT 40.027725 -78.885498 32,000 265 345 0
2022-01-11 15:03:22 GMT 40.028320 -78.877197 32,000 265 345 128
2022-01-11 15:03:19 GMT 40.028778 -78.870789 32,000 265 345 0
2022-01-11 15:03:16 GMT 40.029293 -78.863487 32,000 265 345 -64
2022-01-11 15:03:12 GMT 40.029850 -78.855431 32,000 265 345 0
2022-01-11 15:03:08 GMT 40.030502 -78.846069 32,000 265 346 64
2022-01-11 15:03:05 GMT 40.030827 -78.841949 32,000 265 346 64
2022-01-11 15:03:02 GMT 40.031433 -78.833252 32,000 265 346 -64
2022-01-11 15:02:58 GMT 40.031994 -78.825340 32,000 265 346 0
2022-01-11 15:02:55 GMT 40.032597 -78.817039 32,000 265 346 64
2022-01-11 15:02:52 GMT 40.032875 -78.813049 32,000 265 347 64
2022-01-11 15:02:48 GMT 40.033855 -78.799561 32,000 265 347 -64
2022-01-11 15:02:45 GMT 40.033855 -78.799561 32,000 265 347 -64
2022-01-11 15:02:41 GMT 40.035019 -78.782898 32,000 265 348 0
2022-01-11 15:02:38 GMT 40.035019 -78.782898 32,000 265 348 -64
2022-01-11 15:02:35 GMT 40.035343 -78.778717 32,000 265 348 -64
2022-01-11 15:02:29 GMT 40.036377 -78.764099 32,000 265 348 0
2022-01-11 15:02:26 GMT 40.036739 -78.758675 32,000 265 348 -64
2022-01-11 15:02:20 GMT 40.037842 -78.743225 32,000 265 348 64
2022-01-11 15:02:17 GMT 40.038071 -78.740051 32,000 265 347 64
2022-01-11 15:02:14 GMT 40.038391 -78.734924 32,000 265 347 0
2022-01-11 15:02:07 GMT 40.039673 -78.716980 32,000 265 347 0
2022-01-11 15:02:04 GMT 40.039856 -78.714050 32,000 265 347 0
2022-01-11 15:01:59 GMT 40.040558 -78.704491 32,000 265 347 0
2022-01-11 15:01:56 GMT 40.041138 -78.695862 32,000 265 347 0
2022-01-11 15:01:53 GMT 40.041504 -78.690857 32,000 265 347 0
2022-01-11 15:01:50 GMT 40.042053 -78.682556 32,000 265 347 0
2022-01-11 15:01:46 GMT 40.042374 -78.678406 32,000 265 348 64
2022-01-11 15:01:43 GMT 40.043427 -78.663208 32,000 265 348 64
2022-01-11 15:01:35 GMT 40.044113 -78.653198 32,000 265 348 0
2022-01-11 15:01:32 GMT 40.044979 -78.641075 32,000 265 348 64
2022-01-11 15:01:29 GMT 40.045349 -78.635620 32,000 265 349 64
2022-01-11 15:01:23 GMT 40.045990 -78.626404 32,000 265 349 -64
2022-01-11 15:01:19 GMT 40.046494 -78.618896 32,000 265 349 -64
2022-01-11 15:01:15 GMT 40.046982 -78.611732 32,000 265 349 64
2022-01-11 15:01:10 GMT 40.047726 -78.600876 32,575 265 346 -128
2022-01-11 15:01:05 GMT 40.048424 -78.590820 32,000 265 347 64
2022-01-11 15:01:02 GMT 40.048874 -78.584595 32,000 265 347 64
2022-01-11 15:00:55 GMT 40.050018 -78.568176 32,000 265 346 -256
2022-01-11 15:00:51 GMT 40.050331 -78.563545 32,150 265 346 -512
2022-01-11 15:00:47 GMT 40.051117 -78.552124 32,050 265 346 -768
2022-01-11 15:00:44 GMT 40.051498 -78.546753 32,125 265 346 -896
2022-01-11 15:00:41 GMT 40.051849 -78.541321 32,125 265 346 -896
2022-01-11 15:00:37 GMT 40.052399 -78.533142 32,200 265 346 -832
2022-01-11 15:00:33 GMT 40.052940 -78.525093 32,325 265 347 -896
2022-01-11 15:00:29 GMT 40.053680 -78.514709 32,325 265 347 -832
2022-01-11 15:00:26 GMT 40.054478 -78.502747 32,400 265 347 -832
2022-01-11 15:00:23 GMT 40.054478 -78.502747 32,400 265 347 -832
2022-01-11 15:00:20 GMT 40.054756 -78.498566 32,425 265 347 -832
2022-01-11 15:00:17 GMT 40.055408 -78.489449 32,575 265 347 -896
2022-01-11 15:00:11 GMT 40.056198 -78.477295 32,575 266 347 -896
2022-01-11 15:00:07 GMT 40.056839 -78.468079 32,650 266 347 -832
2022-01-11 15:00:04 GMT 40.057205 -78.462219 32,700 266 347 -832
2022-01-11 15:00:00 GMT 40.057663 -78.455627 32,725 266 347 -832
2022-01-11 14:59:56 GMT 40.058212 -78.447266 32,800 266 346 -896
2022-01-11 14:59:53 GMT 40.059128 -78.433960 32,850 265 346 -896
2022-01-11 14:59:49 GMT 40.059128 -78.433960 32,850 266 346 -832
2022-01-11 14:59:46 GMT 40.059723 -78.424805 32,950 266 346 -896
2022-01-11 14:59:43 GMT 40.060181 -78.418152 33,000 265 346 -896
2022-01-11 14:59:40 GMT 40.060501 -78.413147 33,000 265 346 -896
2022-01-11 14:59:35 GMT 40.061096 -78.404846 33,100 266 346 -832
2022-01-11 14:59:32 GMT 40.061600 -78.397400 33,200 266 346 -832
2022-01-11 14:59:29 GMT 40.062012 -78.391479 33,200 266 346 -832
2022-01-11 14:59:25 GMT 40.062576 -78.382767 33,250 266 346 -832
2022-01-11 14:59:21 GMT 40.063229 -78.372780 33,275 266 345 -832
2022-01-11 14:59:18 GMT 40.063568 -78.367615 33,300 266 345 -768
2022-01-11 14:59:15 GMT 40.064026 -78.360779 33,375 266 345 -832
2022-01-11 14:59:12 GMT 40.064438 -78.354614 33,475 266 344 -832
2022-01-11 14:59:08 GMT 40.064941 -78.347534 33,450 266 344 -832
2022-01-11 14:59:02 GMT 40.065788 -78.334702 33,625 265 343 -896
2022-01-11 14:58:59 GMT 40.066132 -78.329407 33,575 265 343 -896
2022-01-11 14:58:56 GMT 40.066673 -78.321533 33,625 265 343 -896
2022-01-11 14:58:51 GMT 40.067230 -78.313416 33,775 266 344 -832
2022-01-11 14:58:47 GMT 40.068008 -78.302185 33,750 266 345 -896
2022-01-11 14:58:41 GMT 40.068741 -78.290710 33,925 266 345 -832
2022-01-11 14:58:37 GMT 40.069328 -78.281830 33,900 266 346 -832
2022-01-11 14:58:34 GMT 40.069656 -78.277283 33,975 266 345 -640
2022-01-11 14:58:31 GMT 40.070118 -78.270226 34,000 266 344 -64
2022-01-11 14:58:27 GMT 40.070538 -78.263664 34,000 266 344 -192
2022-01-11 14:58:23 GMT 40.071236 -78.252869 34,000 266 344 0
2022-01-11 14:58:19 GMT 40.071655 -78.246376 34,000 266 343 0
2022-01-11 14:58:16 GMT 40.072174 -78.238464 34,000 266 343 0
2022-01-11 14:58:13 GMT 40.072540 -78.232666 34,000 266 342 64
2022-01-11 14:58:10 GMT 40.072952 -78.226135 34,000 266 342 -64
2022-01-11 14:58:07 GMT 40.073181 -78.222839 34,000 266 342 64
2022-01-11 14:58:05 GMT 40.073517 -78.217537 34,000 266 342 0
2022-01-11 14:58:01 GMT 40.074188 -78.207336 34,000 266 342 -64
2022-01-11 14:57:57 GMT 40.074539 -78.201996 34,000 266 342 64
2022-01-11 14:57:55 GMT 40.074913 -78.196251 34,000 266 342 64
2022-01-11 14:57:49 GMT 40.075653 -78.185059 34,000 266 343 0
2022-01-11 14:57:46 GMT 40.076077 -78.178963 34,000 266 343 -64
2022-01-11 14:57:42 GMT 40.076683 -78.169037 34,000 266 343 -64
2022-01-11 14:57:39 GMT 40.077148 -78.162422 34,000 266 343 -64
2022-01-11 14:57:36 GMT 40.077335 -78.159111 34,000 266 343 -64
2022-01-11 14:57:34 GMT 40.077759 -78.152954 34,000 266 343 0
2022-01-11 14:57:30 GMT 40.078125 -78.146812 34,000 266 344 64
2022-01-11 14:57:26 GMT 40.078732 -78.137695 34,000 266 344 64
2022-01-11 14:57:22 GMT 40.079197 -78.130211 34,000 266 344 0
2022-01-11 14:57:19 GMT 40.079819 -78.120789 34,000 266 345 -64
2022-01-11 14:57:15 GMT 40.080265 -78.113670 34,000 266 346 -64
2022-01-11 14:57:11 GMT 40.080776 -78.105362 34,000 266 346 0
2022-01-11 14:57:07 GMT 40.081196 -78.098686 34,000 266 347 -64
2022-01-11 14:57:05 GMT 40.081478 -78.094566 34,000 266 347 -64
2022-01-11 14:57:02 GMT 40.082035 -78.085510 34,000 266 348 64
2022-01-11 14:56:58 GMT 40.082500 -78.077835 34,000 266 347 0
2022-01-11 14:56:55 GMT 40.082748 -78.074097 34,000 266 349 0
2022-01-11 14:56:52 GMT 40.083069 -78.069092 34,000 266 349 0
2022-01-11 14:56:50 GMT 40.083431 -78.062859 34,000 266 349 -64
2022-01-11 14:56:46 GMT 40.084030 -78.053162 34,000 266 349 -64
2022-01-11 14:56:43 GMT 40.084316 -78.048561 34,000 266 350 64
2022-01-11 14:56:39 GMT 40.084873 -78.039383 34,000 266 350 64
2022-01-11 14:56:36 GMT 40.085220 -78.033936 34,000 265 350 0
2022-01-11 14:56:33 GMT 40.085758 -78.025963 34,000 265 350 64
2022-01-11 14:56:29 GMT 40.086319 -78.018288 34,000 266 349 0
2022-01-11 14:56:26 GMT 40.086777 -78.011169 34,000 266 349 0
2022-01-11 14:56:23 GMT 40.087097 -78.006165 34,000 266 349 0
2022-01-11 14:56:18 GMT 40.087715 -77.995811 34,000 268 344 64
2022-01-11 14:56:15 GMT 40.088150 -77.987000 34,000 267 346 -64
2022-01-11 14:56:12 GMT 40.088322 -77.983955 34,000 267 346 -64
2022-01-11 14:56:08 GMT 40.088833 -77.972343 34,000 268 344 64
2022-01-11 14:56:05 GMT 40.088974 -77.969421 34,000 268 345 0
2022-01-11 14:56:02 GMT 40.089203 -77.963226 34,000 268 343 64
2022-01-11 14:55:57 GMT 40.089569 -77.949585 34,000 269 342 0
2022-01-11 14:55:54 GMT 40.089661 -77.945496 34,000 269 342 0
2022-01-11 14:55:51 GMT 40.089706 -77.939697 34,000 269 341 0
2022-01-11 14:55:47 GMT 40.089809 -77.931892 34,000 269 340 0
2022-01-11 14:55:44 GMT 40.089890 -77.925720 34,000 269 340 0
2022-01-11 14:55:41 GMT 40.089996 -77.919785 34,000 269 340 0
2022-01-11 14:55:38 GMT 40.090164 -77.906921 34,000 269 340 0
2022-01-11 14:55:35 GMT 40.090164 -77.906921 34,000 270 339 0
2022-01-11 14:55:32 GMT 40.090229 -77.900742 34,000 269 339 0
2022-01-11 14:55:28 GMT 40.090366 -77.887695 34,000 270 339 0
2022-01-11 14:55:25 GMT 40.090416 -77.884392 34,000 270 338 0
2022-01-11 14:55:22 GMT 40.090485 -77.879944 34,000 270 338 0
2022-01-11 14:55:19 GMT 40.090530 -77.876099 34,000 270 338 0
2022-01-11 14:55:16 GMT 40.090649 -77.866661 34,000 270 337 64
2022-01-11 14:55:13 GMT 40.090668 -77.862061 34,000 270 337 0
2022-01-11 14:55:09 GMT 40.090759 -77.854736 34,000 270 337 0
2022-01-11 14:55:06 GMT 40.090836 -77.848686 34,000 270 337 -64
2022-01-11 14:55:03 GMT 40.090927 -77.840691 34,000 269 337 0
2022-01-11 14:54:59 GMT 40.091034 -77.832031 34,000 270 336 0
2022-01-11 14:54:56 GMT 40.091114 -77.827583 34,000 270 336 0
2022-01-11 14:54:53 GMT 40.091297 -77.811356 34,000 270 336 -64
2022-01-11 14:54:49 GMT 40.091297 -77.811356 34,000 270 336 -64
2022-01-11 14:54:45 GMT 40.091393 -77.804115 34,000 270 336 64
2022-01-11 14:54:42 GMT 40.091534 -77.792877 34,000 270 337 0
2022-01-11 14:54:39 GMT 40.091534 -77.792877 34,000 270 337 -64
2022-01-11 14:54:36 GMT 40.091583 -77.785828 34,000 270 337 -64
2022-01-11 14:54:32 GMT 40.091671 -77.777336 34,000 270 337 0
2022-01-11 14:54:29 GMT 40.091766 -77.771240 34,000 270 337 64
2022-01-11 14:54:26 GMT 40.091812 -77.765564 34,000 270 337 64
2022-01-11 14:54:22 GMT 40.091999 -77.751366 34,000 270 337 0
2022-01-11 14:54:18 GMT 40.091999 -77.751366 34,000 270 336 0
2022-01-11 14:54:14 GMT 40.092091 -77.740814 34,000 270 336 0
2022-01-11 14:54:10 GMT 40.092178 -77.733154 34,000 270 336 0
2022-01-11 14:54:06 GMT 40.092232 -77.727898 34,000 270 336 0
2022-01-11 14:54:03 GMT 40.092316 -77.721008 34,000 270 336 0
2022-01-11 14:54:00 GMT 40.092369 -77.714912 34,000 270 336 0
2022-01-11 14:53:57 GMT 40.092453 -77.708862 34,000 270 336 -64
2022-01-11 14:53:54 GMT 40.092499 -77.702393 34,000 270 336 0
2022-01-11 14:53:51 GMT 40.092590 -77.694336 34,000 270 335 0
2022-01-11 14:53:47 GMT 40.092648 -77.688385 34,000 270 335 -64
2022-01-11 14:53:43 GMT 40.092728 -77.679749 34,000 270 335 -64
2022-01-11 14:53:39 GMT 40.092865 -77.669373 34,000 270 335 64
2022-01-11 14:53:36 GMT 40.092957 -77.658752 34,000 270 335 0
2022-01-11 14:53:33 GMT 40.092957 -77.658752 34,000 270 335 0
2022-01-11 14:53:28 GMT 40.093094 -77.649170 34,000 270 335 0
2022-01-11 14:53:25 GMT 40.093208 -77.638130 34,000 270 335 0
2022-01-11 14:53:22 GMT 40.093277 -77.632080 34,000 270 335 -64
2022-01-11 14:53:19 GMT 40.093349 -77.623711 34,000 270 336 0
2022-01-11 14:53:15 GMT 40.093349 -77.623711 34,000 270 336 64
2022-01-11 14:53:12 GMT 40.093414 -77.617554 34,000 270 336 0
2022-01-11 14:53:08 GMT 40.093487 -77.607544 34,000 270 336 -64
2022-01-11 14:53:04 GMT 40.093552 -77.601501 34,000 270 336 0
2022-01-11 14:53:02 GMT 40.093597 -77.596497 34,000 270 336 -64
2022-01-11 14:52:59 GMT 40.093674 -77.590508 34,000 270 336 -64
2022-01-11 14:52:57 GMT 40.093689 -77.587646 34,000 270 336 64
2022-01-11 14:52:54 GMT 40.093735 -77.581909 34,000 270 336 0
2022-01-11 14:52:51 GMT 40.093826 -77.575500 34,000 270 336 64
2022-01-11 14:52:47 GMT 40.093906 -77.567032 34,000 270 336 0
2022-01-11 14:52:44 GMT 40.093964 -77.560120 34,000 270 336 0
2022-01-11 14:52:40 GMT 40.094048 -77.554054 34,000 270 337 -64
2022-01-11 14:52:37 GMT 40.094139 -77.544998 34,000 270 337 -64
2022-01-11 14:52:32 GMT 40.094231 -77.534386 34,000 270 338 64
2022-01-11 14:52:27 GMT 40.094280 -77.524651 34,000 270 338 64
2022-01-11 14:52:23 GMT 40.094418 -77.512413 34,000 270 339 0
2022-01-11 14:52:20 GMT 40.094418 -77.512413 34,000 270 339 0
2022-01-11 14:52:16 GMT 40.094467 -77.502991 34,000 270 340 0
2022-01-11 14:52:12 GMT 40.094559 -77.496582 34,000 270 340 64
2022-01-11 14:52:10 GMT 40.094604 -77.492126 34,000 270 340 64
2022-01-11 14:52:07 GMT 40.094650 -77.485840 34,000 270 340 64
2022-01-11 14:52:05 GMT 40.094696 -77.482544 34,000 270 340 0
2022-01-11 14:52:02 GMT 40.094791 -77.470657 34,000 270 340 64
2022-01-11 14:51:59 GMT 40.094791 -77.470657 34,000 270 341 64
2022-01-11 14:51:55 GMT 40.094879 -77.458740 34,000 270 341 -64
2022-01-11 14:51:52 GMT 40.094925 -77.454651 34,000 270 341 -64
2022-01-11 14:51:49 GMT 40.094971 -77.449707 34,000 270 341 0
2022-01-11 14:51:46 GMT 40.095024 -77.442062 34,000 270 341 0
2022-01-11 14:51:43 GMT 40.095161 -77.427956 34,000 270 341 64
2022-01-11 14:51:39 GMT 40.095161 -77.427956 34,000 270 341 0
2022-01-11 14:51:35 GMT 40.095291 -77.412720 34,000 270 341 -64
2022-01-11 14:51:31 GMT 40.095291 -77.412720 34,000 270 341 64
2022-01-11 14:51:29 GMT 40.095348 -77.407417 34,000 270 341 0
2022-01-11 14:51:25 GMT 40.095394 -77.398369 34,000 270 341 -64
2022-01-11 14:51:22 GMT 40.095520 -77.386414 34,000 270 341 0
2022-01-11 14:51:18 GMT 40.095520 -77.386414 34,000 270 341 0
2022-01-11 14:51:15 GMT 40.095566 -77.378235 34,000 270 342 -64
2022-01-11 14:51:12 GMT 40.095612 -77.373291 34,000 270 342 -64
2022-01-11 14:51:09 GMT 40.095676 -77.365471 34,000 270 342 64
2022-01-11 14:51:05 GMT 40.095749 -77.359253 34,000 270 342 64
2022-01-11 14:51:02 GMT 40.095840 -77.350403 34,000 270 342 -64
2022-01-11 14:50:58 GMT 40.095860 -77.344063 34,000 270 342 0
2022-01-11 14:50:54 GMT 40.095978 -77.333740 34,000 270 342 64
2022-01-11 14:50:51 GMT 40.096001 -77.329330 34,000 270 342 0
2022-01-11 14:50:48 GMT 40.096024 -77.322998 34,000 270 342 -64
2022-01-11 14:50:45 GMT 40.096069 -77.317322 34,000 270 342 64
2022-01-11 14:50:42 GMT 40.096161 -77.308960 34,000 270 342 0
2022-01-11 14:50:38 GMT 40.096207 -77.300781 34,000 270 340 64
2022-01-11 14:50:32 GMT 40.096298 -77.290833 34,000 270 342 0
2022-01-11 14:50:29 GMT 40.096436 -77.275146 34,000 270 342 64
2022-01-11 14:50:26 GMT 40.096436 -77.275146 34,000 270 342 64
2022-01-11 14:50:23 GMT 40.096466 -77.270653 34,000 270 342 0
2022-01-11 14:50:20 GMT 40.096512 -77.263222 34,000 270 341 -64
2022-01-11 14:50:17 GMT 40.096527 -77.258789 34,000 270 340 0
2022-01-11 14:50:13 GMT 40.096573 -77.249634 34,000 270 341 0
2022-01-11 14:50:10 GMT 40.096619 -77.244751 34,000 270 341 -64
2022-01-11 14:50:07 GMT 40.096664 -77.236511 34,000 270 340 -64
2022-01-11 14:50:04 GMT 40.096664 -77.231628 34,000 270 340 64
2022-01-11 14:50:00 GMT 40.096745 -77.223022 34,000 270 340 64
2022-01-11 14:49:56 GMT 40.096790 -77.216530 34,000 270 340 0
2022-01-11 14:49:52 GMT 40.096840 -77.206673 34,000 270 339 -64
2022-01-11 14:49:49 GMT 40.096893 -77.202209 34,000 270 339 -64
2022-01-11 14:49:45 GMT 40.096939 -77.194824 34,000 270 339 0
2022-01-11 14:49:42 GMT 40.096985 -77.185974 34,000 270 339 0
2022-01-11 14:49:39 GMT 40.097027 -77.179703 34,000 270 339 0
2022-01-11 14:49:36 GMT 40.097031 -77.176025 34,000 270 339 0
2022-01-11 14:49:34 GMT 40.097073 -77.169907 34,000 270 339 0
2022-01-11 14:49:30 GMT 40.097118 -77.161728 34,000 270 339 -64
2022-01-11 14:49:27 GMT 40.097118 -77.157791 34,000 262 349 -64
2022-01-11 14:49:24 GMT 40.097260 -77.148987 34,000 269 340 -64
2022-01-11 14:49:21 GMT 40.097351 -77.142876 34,000 268 342 0
2022-01-11 14:49:18 GMT 40.097580 -77.136658 34,000 266 344 0
2022-01-11 14:49:15 GMT 40.098404 -77.125122 34,000 263 347 -64
2022-01-11 14:49:12 GMT 40.098404 -77.125122 34,000 263 347 -64
2022-01-11 14:49:09 GMT 40.099121 -77.118843 34,000 261 350 0
2022-01-11 14:49:06 GMT 40.099632 -77.114662 34,000 259 354 0
2022-01-11 14:49:03 GMT 40.100922 -77.106689 34,000 257 356 -64
2022-01-11 14:49:00 GMT 40.101959 -77.101242 34,000 255 358 -128
2022-01-11 14:48:57 GMT 40.103401 -77.094749 34,000 243 377 0
2022-01-11 14:48:54 GMT 40.105042 -77.088440 34,000 249 368 192
2022-01-11 14:48:51 GMT 40.107010 -77.081726 34,000 248 370 128
2022-01-11 14:48:47 GMT 40.109482 -77.074463 34,000 243 377 -64
2022-01-11 14:48:44 GMT 40.111782 -77.068405 34,000 243 377 0
2022-01-11 14:48:42 GMT 40.113457 -77.064224 34,000 243 378 64
2022-01-11 14:48:39 GMT 40.116066 -77.057732 34,000 243 378 0
2022-01-11 14:48:36 GMT 40.119045 -77.050491 34,000 243 378 -64
2022-01-11 14:48:32 GMT 40.122482 -77.042053 34,000 243 378 0
2022-01-11 14:48:28 GMT 40.125561 -77.034447 34,000 243 375 -64
2022-01-11 14:48:25 GMT 40.129749 -77.024025 34,000 243 377 64
2022-01-11 14:48:22 GMT 40.129749 -77.024025 34,000 243 377 64
2022-01-11 14:48:19 GMT 40.135338 -77.010231 34,000 243 376 -64
2022-01-11 14:48:16 GMT 40.135338 -77.010231 34,000 243 376 0
2022-01-11 14:48:13 GMT 40.137451 -77.005066 34,000 243 376 0
2022-01-11 14:48:11 GMT 40.139572 -76.999802 34,000 243 376 0
2022-01-11 14:48:08 GMT 40.141853 -76.994186 34,000 243 376 -64
2022-01-11 14:48:05 GMT 40.143764 -76.989563 34,000 243 376 -64
2022-01-11 14:48:02 GMT 40.146694 -76.982323 34,000 243 375 -64
2022-01-11 14:47:59 GMT 40.149349 -76.975830 34,000 243 375 -64
2022-01-11 14:47:54 GMT 40.153015 -76.966675 34,000 243 376 64
2022-01-11 14:47:51 GMT 40.157452 -76.955795 34,000 243 376 -64
2022-01-11 14:47:48 GMT 40.159081 -76.951736 34,000 243 376 0
2022-01-11 14:47:43 GMT 40.162170 -76.944092 34,000 243 376 0
2022-01-11 14:47:40 GMT 40.164413 -76.938538 34,000 243 376 64
2022-01-11 14:47:37 GMT 40.167225 -76.931641 34,000 243 376 64
2022-01-11 14:47:34 GMT 40.168945 -76.927368 34,000 243 377 -128
2022-01-11 14:47:31 GMT 40.172066 -76.919716 34,000 243 376 -64
2022-01-11 14:47:28 GMT 40.174210 -76.914368 34,000 243 376 64
2022-01-11 14:47:25 GMT 40.175697 -76.910728 34,000 243 377 -64
2022-01-11 14:47:22 GMT 40.178631 -76.903488 34,000 243 377 -64
2022-01-11 14:47:19 GMT 40.181236 -76.896996 34,000 243 377 -64
2022-01-11 14:47:16 GMT 40.183193 -76.892128 34,000 243 377 -128
2022-01-11 14:47:12 GMT 40.187477 -76.881577 34,000 243 378 0
2022-01-11 14:47:09 GMT 40.189865 -76.875549 34,000 243 377 64
2022-01-11 14:47:06 GMT 40.191341 -76.871902 34,000 243 378 64
2022-01-11 14:47:04 GMT 40.192795 -76.868347 34,000 243 378 64
2022-01-11 14:47:01 GMT 40.195576 -76.861412 34,000 243 378 0
2022-01-11 14:46:58 GMT 40.198181 -76.854919 34,000 243 378 0
2022-01-11 14:46:55 GMT 40.199982 -76.850525 34,000 243 378 -64
2022-01-11 14:46:52 GMT 40.203724 -76.841187 34,000 243 378 -64
2022-01-11 14:46:49 GMT 40.205353 -76.837196 34,000 243 378 64
2022-01-11 14:46:46 GMT 40.208130 -76.830322 34,000 243 378 0
2022-01-11 14:46:43 GMT 40.211220 -76.822647 34,000 243 378 0
2022-01-11 14:46:39 GMT 40.213497 -76.816971 34,000 243 378 64
2022-01-11 14:46:37 GMT 40.215271 -76.812500 34,000 243 378 64
2022-01-11 14:46:34 GMT 40.217880 -76.806030 34,000 243 378 64
2022-01-11 14:46:30 GMT 40.220810 -76.798767 34,000 243 377 0
2022-01-11 14:46:27 GMT 40.224205 -76.790314 34,000 243 377 64
2022-01-11 14:46:24 GMT 40.226116 -76.785568 34,000 243 377 64
2022-01-11 14:46:20 GMT 40.229748 -76.776581 34,000 243 377 0
2022-01-11 14:46:17 GMT 40.231842 -76.771301 34,000 243 377 -64
2022-01-11 14:46:14 GMT 40.234589 -76.764473 34,000 243 379 64
2022-01-11 14:46:11 GMT 40.236820 -76.758850 34,000 243 379 64
2022-01-11 14:46:08 GMT 40.239304 -76.752747 34,000 243 380 64
2022-01-11 14:46:04 GMT 40.245163 -76.738098 34,000 243 382 0
2022-01-11 14:46:01 GMT 40.245163 -76.738098 34,000 243 382 0
2022-01-11 14:45:58 GMT 40.247669 -76.731827 34,000 243 385 -64
2022-01-11 14:45:54 GMT 40.250153 -76.725647 34,000 243 386 -64
2022-01-11 14:45:52 GMT 40.252647 -76.719467 34,000 243 388 0
2022-01-11 14:45:48 GMT 40.255508 -76.712402 34,000 243 390 -64
2022-01-11 14:45:45 GMT 40.257629 -76.707108 34,000 243 390 -64
2022-01-11 14:45:43 GMT 40.259399 -76.702797 34,000 243 390 -64
2022-01-11 14:45:41 GMT 40.261917 -76.696533 34,000 243 393 0
2022-01-11 14:45:37 GMT 40.264473 -76.690254 34,000 243 395 64
2022-01-11 14:45:34 GMT 40.267502 -76.682823 34,000 243 398 64
2022-01-11 14:45:31 GMT 40.270844 -76.674500 34,000 243 400 -64
2022-01-11 14:45:27 GMT 40.273457 -76.668091 34,000 243 404 -64
2022-01-11 14:45:24 GMT 40.278854 -76.654663 34,000 243 404 -64
2022-01-11 14:45:21 GMT 40.278854 -76.654663 34,000 243 404 -64
2022-01-11 14:45:18 GMT 40.281464 -76.648178 34,000 243 405 -64
2022-01-11 14:45:15 GMT 40.283794 -76.642311 34,000 243 405 0
2022-01-11 14:45:13 GMT 40.285282 -76.638687 34,000 243 405 -64
2022-01-11 14:45:10 GMT 40.288727 -76.630013 34,000 243 405 -64
2022-01-11 14:45:07 GMT 40.290451 -76.625641 34,000 243 405 64
2022-01-11 14:45:04 GMT 40.292725 -76.620056 34,000 243 405 64
2022-01-11 14:45:02 GMT 40.295616 -76.612785 34,000 243 404 -64
2022-01-11 14:44:59 GMT 40.298264 -76.606201 34,000 243 404 -64
2022-01-11 14:44:55 GMT 40.301697 -76.597717 34,000 243 404 0
2022-01-11 14:44:51 GMT 40.304371 -76.591064 34,000 243 404 0
2022-01-11 14:44:48 GMT 40.307648 -76.582825 34,000 243 403 0
2022-01-11 14:44:45 GMT 40.310440 -76.575867 34,000 243 403 0
2022-01-11 14:44:42 GMT 40.312656 -76.570274 34,000 243 403 0
2022-01-11 14:44:39 GMT 40.314655 -76.565285 34,000 243 404 64
2022-01-11 14:44:36 GMT 40.317352 -76.558594 34,000 243 404 64
2022-01-11 14:44:33 GMT 40.319965 -76.552109 34,000 243 404 64
2022-01-11 14:44:31 GMT 40.322571 -76.545593 34,000 243 404 64
2022-01-11 14:44:27 GMT 40.325874 -76.537376 34,000 243 404 -64
2022-01-11 14:44:24 GMT 40.328625 -76.530640 34,000 243 404 0
2022-01-11 14:44:21 GMT 40.330582 -76.525696 34,000 243 403 0
2022-01-11 14:44:18 GMT 40.336956 -76.509666 34,000 243 403 0
2022-01-11 14:44:14 GMT 40.336956 -76.509666 34,000 243 402 0
2022-01-11 14:44:11 GMT 40.339329 -76.503609 34,000 244 403 0
2022-01-11 14:44:06 GMT 40.343124 -76.493774 34,000 244 403 0
2022-01-11 14:44:02 GMT 40.346405 -76.485252 34,000 244 403 0
2022-01-11 14:44:00 GMT 40.349106 -76.478264 34,000 244 403 0
2022-01-11 14:43:55 GMT 40.353527 -76.466904 34,000 244 404 -64
2022-01-11 14:43:51 GMT 40.357040 -76.457886 34,000 244 404 0
2022-01-11 14:43:48 GMT 40.359303 -76.452049 34,000 244 405 0
2022-01-11 14:43:45 GMT 40.361847 -76.445496 34,000 244 406 0
2022-01-11 14:43:42 GMT 40.363674 -76.440811 34,000 244 406 -64
2022-01-11 14:43:39 GMT 40.368576 -76.428101 34,000 244 405 0
2022-01-11 14:43:36 GMT 40.368576 -76.428101 34,000 244 405 0
2022-01-11 14:43:33 GMT 40.372009 -76.419312 34,000 244 405 -64
2022-01-11 14:43:30 GMT 40.374569 -76.412659 34,000 244 405 -64
2022-01-11 14:43:26 GMT 40.377270 -76.405670 34,000 244 405 64
2022-01-11 14:43:23 GMT 40.379925 -76.398804 34,000 244 405 0
2022-01-11 14:43:19 GMT 40.383865 -76.388611 34,000 244 404 0
2022-01-11 14:43:15 GMT 40.387047 -76.380325 34,000 244 404 0
2022-01-11 14:43:12 GMT 40.391094 -76.369835 34,000 244 404 0
2022-01-11 14:43:10 GMT 40.391094 -76.369835 34,000 244 405 0
2022-01-11 14:43:08 GMT 40.395355 -76.358826 34,000 244 405 0
2022-01-11 14:43:04 GMT 40.395355 -76.358826 34,000 244 405 0
2022-01-11 14:43:01 GMT 40.399242 -76.348740 34,000 244 405 64
2022-01-11 14:42:58 GMT 40.401665 -76.342499 34,000 243 407 -64
2022-01-11 14:42:55 GMT 40.403339 -76.338127 34,000 243 407 -64
2022-01-11 14:42:52 GMT 40.406570 -76.329834 34,000 244 406 64
2022-01-11 14:42:49 GMT 40.411438 -76.317154 34,000 244 406 0
2022-01-11 14:42:46 GMT 40.411438 -76.317154 34,000 244 408 -64
2022-01-11 14:42:43 GMT 40.414032 -76.310486 34,000 244 408 -64
2022-01-11 14:42:39 GMT 40.417053 -76.302734 34,000 244 409 64
2022-01-11 14:42:37 GMT 40.419525 -76.296387 34,000 244 409 64
2022-01-11 14:42:33 GMT 40.422752 -76.287941 34,000 244 410 384
2022-01-11 14:42:30 GMT 40.425293 -76.281372 33,950 244 408 1024
2022-01-11 14:42:27 GMT 40.428040 -76.274170 33,900 244 408 1152
2022-01-11 14:42:24 GMT 40.429688 -76.269958 33,800 244 408 1152
2022-01-11 14:42:20 GMT 40.433853 -76.259155 33,775 244 408 1024
2022-01-11 14:42:17 GMT 40.435455 -76.254883 33,750 244 407 960
2022-01-11 14:42:15 GMT 40.438019 -76.248238 33,700 244 406 960
2022-01-11 14:42:12 GMT 40.439369 -76.244743 33,650 244 401 1024
2022-01-11 14:42:09 GMT 40.442642 -76.236267 33,500 244 402 960
2022-01-11 14:42:06 GMT 40.445023 -76.230103 33,550 244 404 1024
2022-01-11 14:42:03 GMT 40.447678 -76.223083 33,500 244 404 1088
2022-01-11 14:42:00 GMT 40.449890 -76.217400 33,425 244 402 1024
2022-01-11 14:41:57 GMT 40.452393 -76.210876 33,400 244 401 1024
2022-01-11 14:41:54 GMT 40.455803 -76.201920 33,350 244 401 1088
2022-01-11 14:41:51 GMT 40.460953 -76.188477 33,325 244 398 1088
2022-01-11 14:41:47 GMT 40.460953 -76.188477 33,225 244 397 1152
2022-01-11 14:41:44 GMT 40.466183 -76.174889 33,000 244 395 1280
2022-01-11 14:41:41 GMT 40.466183 -76.174889 33,075 244 398 1088
2022-01-11 14:41:37 GMT 40.469166 -76.167152 33,050 244 397 1088
2022-01-11 14:41:35 GMT 40.470699 -76.163033 33,025 244 397 1216
2022-01-11 14:41:32 GMT 40.473267 -76.156372 32,950 244 395 1280
2022-01-11 14:41:28 GMT 40.476704 -76.147362 32,875 244 395 1664
2022-01-11 14:41:26 GMT 40.478985 -76.141373 32,750 244 396 1856
2022-01-11 14:41:22 GMT 40.481964 -76.133690 32,700 244 396 1984
2022-01-11 14:41:20 GMT 40.483429 -76.129761 32,575 244 397 2240
2022-01-11 14:41:17 GMT 40.485924 -76.123329 32,475 244 397 2240
2022-01-11 14:41:14 GMT 40.488647 -76.116211 32,400 244 398 2176
2022-01-11 14:41:11 GMT 40.490387 -76.111755 32,325 244 398 2176
2022-01-11 14:41:08 GMT 40.493683 -76.103088 32,175 244 399 2048
2022-01-11 14:41:05 GMT 40.495510 -76.098366 32,025 244 400 1920
2022-01-11 14:41:02 GMT 40.498539 -76.090500 32,000 244 400 1920
2022-01-11 14:40:59 GMT 40.499844 -76.087067 31,950 244 400 1856
2022-01-11 14:40:56 GMT 40.503193 -76.078384 31,700 244 401 1664
2022-01-11 14:40:53 GMT 40.506042 -76.070923 31,625 244 401 1600
2022-01-11 14:40:50 GMT 40.507523 -76.066963 31,675 244 401 1536
2022-01-11 14:40:47 GMT 40.510876 -76.058289 31,575 244 400 1216
2022-01-11 14:40:44 GMT 40.512680 -76.053528 31,150 244 399 1216
2022-01-11 14:40:41 GMT 40.516460 -76.043556 31,450 244 399 1216
2022-01-11 14:40:37 GMT 40.518951 -76.037048 31,400 244 399 1408
2022-01-11 14:40:33 GMT 40.522934 -76.026672 31,275 244 398 1344
2022-01-11 14:40:30 GMT 40.524261 -76.023193 31,150 244 396 1344
2022-01-11 14:40:27 GMT 40.527679 -76.014153 31,150 244 396 1280
2022-01-11 14:40:23 GMT 40.530289 -76.007286 31,025 244 395 1344
2022-01-11 14:40:20 GMT 40.532776 -76.000854 30,950 244 394 1600
2022-01-11 14:40:17 GMT 40.535919 -75.992622 30,900 244 394 1728
2022-01-11 14:40:14 GMT 40.538040 -75.987061 30,750 244 393 1920
2022-01-11 14:40:09 GMT 40.544220 -75.970825 30,600 244 393 2048
2022-01-11 14:40:06 GMT 40.544220 -75.970825 30,575 244 394 1984
2022-01-11 14:40:03 GMT 40.549000 -75.958351 30,425 244 394 1856
2022-01-11 14:40:00 GMT 40.549000 -75.958351 30,275 244 394 1792
2022-01-11 14:39:57 GMT 40.551514 -75.951668 30,250 244 394 1728
2022-01-11 14:39:53 GMT 40.554703 -75.943359 30,125 244 393 1536
2022-01-11 14:39:50 GMT 40.557472 -75.936127 30,050 244 393 1472
2022-01-11 14:39:47 GMT 40.559101 -75.931824 30,050 244 393 1472
2022-01-11 14:39:44 GMT 40.562317 -75.923332 29,775 244 392 1344
2022-01-11 14:39:42 GMT 40.564270 -75.918213 29,900 244 390 1344
2022-01-11 14:39:38 GMT 40.566223 -75.913094 29,825 244 389 1344
2022-01-11 14:39:35 GMT 40.568939 -75.905884 29,725 244 389 1344
2022-01-11 14:39:32 GMT 40.571346 -75.899544 29,700 244 389 1344
2022-01-11 14:39:30 GMT 40.575668 -75.888123 29,600 244 387 1344
2022-01-11 14:39:27 GMT 40.575668 -75.888123 29,525 244 386 1344
2022-01-11 14:39:23 GMT 40.579193 -75.878906 29,500 244 386 1344
2022-01-11 14:39:21 GMT 40.580284 -75.876015 29,400 244 385 1344
2022-01-11 14:39:18 GMT 40.582993 -75.868835 29,375 244 384 1344
2022-01-11 14:39:15 GMT 40.585358 -75.862595 29,325 244 383 1408
2022-01-11 14:39:12 GMT 40.588200 -75.855103 29,275 244 383 1472
2022-01-11 14:39:08 GMT 40.591038 -75.847610 29,050 244 381 1600
2022-01-11 14:39:05 GMT 40.593338 -75.841553 29,075 244 381 1600
2022-01-11 14:39:02 GMT 40.596344 -75.833565 28,950 244 379 1728
2022-01-11 14:38:59 GMT 40.598579 -75.827759 28,950 244 379 1728
2022-01-11 14:38:56 GMT 40.600117 -75.823578 28,750 244 379 1728
2022-01-11 14:38:53 GMT 40.603233 -75.815338 28,575 244 379 1792
2022-01-11 14:38:50 GMT 40.604771 -75.811340 28,375 244 378 1664
2022-01-11 14:38:47 GMT 40.607285 -75.804665 28,550 244 378 1728
2022-01-11 14:38:44 GMT 40.609589 -75.798584 28,475 244 378 1664
2022-01-11 14:38:41 GMT 40.611511 -75.793518 28,400 244 378 1664
2022-01-11 14:38:39 GMT 40.613022 -75.789490 28,350 244 377 1728
2022-01-11 14:38:37 GMT 40.615337 -75.783318 28,275 244 377 1664
2022-01-11 14:38:34 GMT 40.620319 -75.770081 28,175 244 377 1664
2022-01-11 14:38:31 GMT 40.620319 -75.770081 28,100 244 376 1600
2022-01-11 14:38:26 GMT 40.623020 -75.762901 28,000 244 375 1664
2022-01-11 14:38:24 GMT 40.625580 -75.756165 27,900 244 374 1664
2022-01-11 14:38:19 GMT 40.628281 -75.748985 27,725 244 374 1600
2022-01-11 14:38:16 GMT 40.631725 -75.739807 27,625 244 373 1408
2022-01-11 14:38:13 GMT 40.633167 -75.735939 27,650 244 373 1408
2022-01-11 14:38:10 GMT 40.636093 -75.728210 27,550 244 372 1344
2022-01-11 14:38:07 GMT 40.638428 -75.721954 27,475 244 372 1344
2022-01-11 14:38:04 GMT 40.640846 -75.715462 27,300 244 370 1024
2022-01-11 14:38:01 GMT 40.642712 -75.710655 27,375 244 371 1216
2022-01-11 14:37:58 GMT 40.647720 -75.697327 27,275 244 370 1152
2022-01-11 14:37:55 GMT 40.647720 -75.697327 27,250 244 370 896
2022-01-11 14:37:52 GMT 40.649506 -75.692444 27,200 244 369 832
2022-01-11 14:37:49 GMT 40.651016 -75.688416 27,175 244 368 640
2022-01-11 14:37:46 GMT 40.653763 -75.681213 27,150 244 368 576
2022-01-11 14:37:43 GMT 40.656582 -75.673576 27,125 244 367 448
2022-01-11 14:37:39 GMT 40.661983 -75.659157 27,100 244 366 384
2022-01-11 14:37:36 GMT 40.661983 -75.659157 27,075 244 365 384
2022-01-11 14:37:33 GMT 40.663147 -75.656097 27,050 244 365 384
2022-01-11 14:37:30 GMT 40.666901 -75.646057 27,025 244 364 320
2022-01-11 14:37:25 GMT 40.669758 -75.638496 27,000 244 364 256
2022-01-11 14:37:22 GMT 40.672577 -75.630920 27,000 244 364 128
2022-01-11 14:37:17 GMT 40.676147 -75.621338 27,000 244 364 0
2022-01-11 14:37:14 GMT 40.678371 -75.615402 27,000 244 364 0
2022-01-11 14:37:11 GMT 40.681675 -75.606598 27,000 244 364 -64
2022-01-11 14:37:08 GMT 40.681675 -75.606598 27,000 244 364 0
2022-01-11 14:37:06 GMT 40.683929 -75.600647 27,000 244 365 0
2022-01-11 14:37:03 GMT 40.686630 -75.593445 27,000 244 366 -64
2022-01-11 14:37:00 GMT 40.688736 -75.587830 27,000 244 366 -64
2022-01-11 14:36:57 GMT 40.692520 -75.577759 27,000 244 368 0
2022-01-11 14:36:54 GMT 40.692520 -75.577759 27,000 244 368 0
2022-01-11 14:36:51 GMT 40.694778 -75.571716 27,000 244 368 0
2022-01-11 14:36:48 GMT 40.697205 -75.565247 27,000 244 368 -64
2022-01-11 14:36:45 GMT 40.700016 -75.557785 27,000 244 368 64
2022-01-11 14:36:42 GMT 40.702286 -75.551575 27,000 244 368 64
2022-01-11 14:36:39 GMT 40.704205 -75.546486 27,000 244 368 64
2022-01-11 14:36:37 GMT 40.705261 -75.543640 27,000 244 368 0
2022-01-11 14:36:34 GMT 40.708328 -75.535522 27,000 244 367 0
2022-01-11 14:36:30 GMT 40.710537 -75.529510 27,000 244 367 64
2022-01-11 14:36:26 GMT 40.714279 -75.519470 27,000 244 367 -64
2022-01-11 14:36:22 GMT 40.717575 -75.510681 27,000 244 367 -64
2022-01-11 14:36:19 GMT 40.721146 -75.501038 27,000 244 367 0
2022-01-11 14:36:16 GMT 40.721146 -75.501038 27,000 244 367 0
2022-01-11 14:36:13 GMT 40.723385 -75.495049 27,000 244 367 0
2022-01-11 14:36:11 GMT 40.725479 -75.489372 27,000 244 367 64
2022-01-11 14:36:06 GMT 40.728607 -75.480957 27,000 244 367 -64
2022-01-11 14:36:03 GMT 40.730347 -75.476257 27,000 244 367 0
2022-01-11 14:36:00 GMT 40.733093 -75.468933 27,000 244 367 0
2022-01-11 14:35:57 GMT 40.738609 -75.454102 27,000 244 368 -64
2022-01-11 14:35:53 GMT 40.738609 -75.454102 27,000 244 367 64
2022-01-11 14:35:50 GMT 40.744171 -75.439209 27,000 244 367 0
2022-01-11 14:35:46 GMT 40.744171 -75.439209 27,000 244 367 0
2022-01-11 14:35:43 GMT 40.746429 -75.433189 27,000 244 368 -64
2022-01-11 14:35:39 GMT 40.748657 -75.427185 27,000 246 365 0
2022-01-11 14:35:36 GMT 40.751312 -75.419922 27,000 245 366 64
2022-01-11 14:35:32 GMT 40.753971 -75.412468 27,000 246 364 -64
2022-01-11 14:35:29 GMT 40.756027 -75.406189 27,000 248 362 -64
2022-01-11 14:35:25 GMT 40.758625 -75.397736 27,000 249 359 -64
2022-01-11 14:35:22 GMT 40.761841 -75.386597 27,000 250 357 -64
2022-01-11 14:35:20 GMT 40.761841 -75.386597 27,000 251 357 -64
2022-01-11 14:35:16 GMT 40.763947 -75.378540 27,000 252 355 0
2022-01-11 14:35:12 GMT 40.765236 -75.373077 27,000 254 352 -64
2022-01-11 14:35:10 GMT 40.766911 -75.365776 27,000 255 350 0
2022-01-11 14:35:06 GMT 40.768204 -75.359497 27,000 256 349 64
2022-01-11 14:35:03 GMT 40.769119 -75.354614 27,000 257 348 64
2022-01-11 14:35:00 GMT 40.770172 -75.348480 27,000 258 346 64
2022-01-11 14:34:58 GMT 40.771053 -75.342743 27,000 259 344 -64
2022-01-11 14:34:55 GMT 40.772003 -75.336609 27,000 260 344 -64
2022-01-11 14:34:52 GMT 40.772873 -75.330627 27,000 260 344 0
2022-01-11 14:34:48 GMT 40.774292 -75.320740 27,000 259 345 -64
2022-01-11 14:34:44 GMT 40.775391 -75.313354 27,000 260 346 64
2022-01-11 14:34:41 GMT 40.776409 -75.306412 27,000 259 345 128
2022-01-11 14:34:37 GMT 40.777386 -75.299728 26,975 260 346 64
2022-01-11 14:34:34 GMT 40.778687 -75.291077 27,000 260 346 64
2022-01-11 14:34:31 GMT 40.779510 -75.285400 27,000 260 347 64
2022-01-11 14:34:28 GMT 40.780380 -75.279480 26,950 260 347 576
2022-01-11 14:34:25 GMT 40.781158 -75.274078 26,975 260 347 384
2022-01-11 14:34:22 GMT 40.781902 -75.269081 26,975 260 338 1280
2022-01-11 14:34:19 GMT 40.782715 -75.263672 26,950 260 346 1472
2022-01-11 14:34:16 GMT 40.783855 -75.255783 26,875 260 346 1792
2022-01-11 14:34:13 GMT 40.785004 -75.248047 26,775 260 346 1792
2022-01-11 14:34:09 GMT 40.786240 -75.239807 26,600 260 346 2112
2022-01-11 14:34:06 GMT 40.786835 -75.235657 26,600 260 346 2112
2022-01-11 14:34:03 GMT 40.787704 -75.229675 26,425 260 346 1856
2022-01-11 14:34:00 GMT 40.788746 -75.222702 26,300 260 346 1664
2022-01-11 14:33:56 GMT 40.789722 -75.216026 26,175 260 345 1472
2022-01-11 14:33:52 GMT 40.791397 -75.204475 26,150 260 344 1408
2022-01-11 14:33:49 GMT 40.792004 -75.200356 26,050 260 342 1344
2022-01-11 14:33:46 GMT 40.793167 -75.192299 26,000 260 341 1344
2022-01-11 14:33:43 GMT 40.794067 -75.186035 25,950 260 340 1280
2022-01-11 14:33:40 GMT 40.794609 -75.182503 25,875 260 338 1280
2022-01-11 14:33:36 GMT 40.796173 -75.171570 25,800 260 337 1280
2022-01-11 14:33:33 GMT 40.796940 -75.166206 25,725 260 335 1152
2022-01-11 14:33:30 GMT 40.797684 -75.161011 25,700 260 333 1088
2022-01-11 14:33:28 GMT 40.798416 -75.156189 25,650 260 332 1088
2022-01-11 14:33:25 GMT 40.798801 -75.153412 25,275 260 326 2048
2022-01-11 14:33:22 GMT 40.799973 -75.145203 25,525 260 329 1280
2022-01-11 14:33:19 GMT 40.801220 -75.136124 25,425 260 327 1792
2022-01-11 14:33:17 GMT 40.801220 -75.136124 25,400 260 327 1856
2022-01-11 14:33:14 GMT 40.802292 -75.128258 25,325 260 326 2048
2022-01-11 14:33:11 GMT 40.802944 -75.123390 25,150 260 326 2112
2022-01-11 14:33:07 GMT 40.804108 -75.114960 25,025 260 321 0
2022-01-11 14:33:03 GMT 40.805099 -75.107422 24,950 260 326 2176
2022-01-11 14:33:00 GMT 40.806015 -75.100792 24,800 260 326 2176
2022-01-11 14:32:57 GMT 40.806610 -75.096497 24,750 260 326 2176
2022-01-11 14:32:54 GMT 40.807343 -75.091003 24,600 260 326 2240
2022-01-11 14:32:51 GMT 40.808109 -75.085182 24,525 260 326 2240
2022-01-11 14:32:48 GMT 40.808899 -75.079285 24,425 260 326 2240
2022-01-11 14:32:45 GMT 40.810673 -75.066338 24,225 260 326 1856
2022-01-11 14:32:42 GMT 40.810673 -75.066338 24,175 260 325 1792
2022-01-11 14:32:39 GMT 40.811184 -75.062401 24,125 261 324 1792
2022-01-11 14:32:37 GMT 40.811508 -75.060089 24,100 261 323 1856
2022-01-11 14:32:35 GMT 40.812439 -75.052979 23,975 261 323 1856
2022-01-11 14:32:32 GMT 40.813248 -75.047058 23,900 261 322 1856
2022-01-11 14:32:29 GMT 40.813843 -75.042419 23,750 261 322 1920
2022-01-11 14:32:27 GMT 40.815140 -75.032875 23,550 260 320 1856
2022-01-11 14:32:24 GMT 40.815140 -75.032875 23,600 260 321 1920
2022-01-11 14:32:21 GMT 40.816132 -75.025391 23,475 260 320 1856
2022-01-11 14:32:18 GMT 40.817276 -75.016846 23,175 261 318 1792
2022-01-11 14:32:16 GMT 40.817276 -75.016846 23,375 261 319 1792
2022-01-11 14:32:13 GMT 40.817780 -75.013000 23,350 261 319 1792
2022-01-11 14:32:10 GMT 40.818680 -75.006531 23,200 261 318 1792
2022-01-11 14:32:07 GMT 40.820400 -74.993553 23,025 261 312 2112
2022-01-11 14:32:04 GMT 40.820400 -74.993553 23,050 261 316 1856
2022-01-11 14:32:01 GMT 40.821259 -74.987061 22,950 260 315 1856
2022-01-11 14:31:57 GMT 40.821983 -74.981377 22,850 261 314 1856
2022-01-11 14:31:54 GMT 40.822723 -74.975952 22,725 261 313 1920
2022-01-11 14:31:51 GMT 40.823639 -74.968933 22,475 261 312 2112
2022-01-11 14:31:47 GMT 40.824310 -74.964088 22,475 261 312 2048
2022-01-11 14:31:45 GMT 40.825008 -74.958778 22,375 261 311 2304
2022-01-11 14:31:42 GMT 40.826591 -74.946861 22,225 261 311 2304
2022-01-11 14:31:39 GMT 40.826591 -74.946861 22,025 261 311 2304
2022-01-11 14:31:36 GMT 40.827255 -74.942078 22,125 261 311 2304
2022-01-11 14:31:33 GMT 40.828171 -74.935181 21,975 260 310 2304
2022-01-11 14:31:30 GMT 40.828781 -74.930382 21,800 260 310 2304
2022-01-11 14:31:27 GMT 40.829544 -74.924805 21,775 260 310 2304
2022-01-11 14:31:24 GMT 40.830231 -74.919495 21,600 260 310 2240
2022-01-11 14:31:21 GMT 40.830963 -74.914246 21,475 261 309 2176
2022-01-11 14:31:18 GMT 40.831993 -74.906410 21,375 261 309 2176
2022-01-11 14:31:15 GMT 40.832413 -74.903351 21,300 261 309 2112
2022-01-11 14:31:12 GMT 40.833294 -74.896736 21,150 261 308 2112
2022-01-11 14:31:09 GMT 40.833996 -74.891426 21,125 261 307 2240
2022-01-11 14:31:06 GMT 40.834625 -74.886597 20,975 261 307 2304
2022-01-11 14:31:03 GMT 40.835312 -74.881409 20,850 261 307 2368
2022-01-11 14:31:00 GMT 40.836182 -74.875069 20,725 261 306 2304
2022-01-11 14:30:57 GMT 40.837624 -74.864082 20,575 261 306 2176
2022-01-11 14:30:52 GMT 40.838322 -74.858902 20,425 261 305 2240
2022-01-11 14:30:49 GMT 40.839706 -74.848328 20,050 261 302 2368
2022-01-11 14:30:46 GMT 40.839706 -74.848328 20,050 261 302 2368
2022-01-11 14:30:43 GMT 40.840557 -74.841866 20,125 261 303 2432
2022-01-11 14:30:40 GMT 40.841118 -74.837494 20,025 261 302 2432
2022-01-11 14:30:37 GMT 40.841766 -74.832703 19,650 261 302 2432
2022-01-11 14:30:34 GMT 40.842545 -74.826904 19,725 261 301 2560
2022-01-11 14:30:31 GMT 40.843185 -74.821899 19,600 261 301 2688
2022-01-11 14:30:28 GMT 40.843910 -74.816521 19,500 261 301 2752
2022-01-11 14:30:25 GMT 40.844650 -74.810974 19,250 261 301 3008
2022-01-11 14:30:21 GMT 40.845863 -74.801849 19,150 261 302 3008
2022-01-11 14:30:18 GMT 40.846481 -74.797180 18,975 261 301 3008
2022-01-11 14:30:15 GMT 40.847122 -74.792175 18,900 261 301 3072
2022-01-11 14:30:13 GMT 40.847492 -74.789490 18,725 261 302 3008
2022-01-11 14:30:10 GMT 40.848427 -74.782310 18,325 261 302 2880
2022-01-11 14:30:07 GMT 40.849045 -74.777527 18,475 261 302 2944
2022-01-11 14:30:04 GMT 40.850147 -74.769142 18,325 261 302 2816
2022-01-11 14:30:02 GMT 40.850147 -74.769142 18,200 261 302 2816
2022-01-11 14:29:59 GMT 40.851059 -74.762207 18,075 261 302 2752
2022-01-11 14:29:56 GMT 40.851776 -74.756660 17,775 261 302 2880
2022-01-11 14:29:53 GMT 40.852150 -74.753906 17,775 261 302 2880
2022-01-11 14:29:50 GMT 40.853222 -74.745857 17,650 261 302 2880
2022-01-11 14:29:47 GMT 40.853683 -74.742111 17,500 261 302 2752
2022-01-11 14:29:44 GMT 40.854492 -74.736023 17,375 261 301 3200
2022-01-11 14:29:41 GMT 40.855129 -74.731186 17,275 261 301 3072
2022-01-11 14:29:38 GMT 40.856049 -74.724365 16,650 261 302 1728
2022-01-11 14:29:35 GMT 40.856758 -74.718826 16,925 261 303 3008
2022-01-11 14:29:32 GMT 40.857468 -74.713440 16,775 261 303 2496
2022-01-11 14:29:29 GMT 40.858292 -74.707458 16,600 261 303 1856
2022-01-11 14:29:26 GMT 40.858994 -74.702034 16,550 261 302 1472
2022-01-11 14:29:23 GMT 40.859364 -74.699104 16,525 261 301 832
2022-01-11 14:29:19 GMT 40.860577 -74.689674 16,500 261 296 64
2022-01-11 14:29:15 GMT 40.861816 -74.679993 16,500 261 295 0
2022-01-11 14:29:12 GMT 40.861816 -74.679993 16,500 261 295 0
2022-01-11 14:29:10 GMT 40.862411 -74.675720 16,500 261 295 -64
2022-01-11 14:29:07 GMT 40.863327 -74.668640 16,500 261 295 -64
2022-01-11 14:29:03 GMT 40.864105 -74.662842 16,500 261 295 -64
2022-01-11 14:29:00 GMT 40.864765 -74.657532 16,500 261 294 0
2022-01-11 14:28:57 GMT 40.865509 -74.651978 16,500 261 294 -64
2022-01-11 14:28:54 GMT 40.866028 -74.648010 16,500 261 294 -64
2022-01-11 14:28:51 GMT 40.867092 -74.639931 16,500 261 294 -64
2022-01-11 14:28:48 GMT 40.867767 -74.634521 16,500 261 294 0
2022-01-11 14:28:45 GMT 40.868069 -74.632065 16,500 261 294 0
2022-01-11 14:28:42 GMT 40.868866 -74.626038 16,500 261 294 0
2022-01-11 14:28:40 GMT 40.869507 -74.621094 16,500 261 294 -64
2022-01-11 14:28:37 GMT 40.870258 -74.615273 16,500 261 294 -64
2022-01-11 14:28:34 GMT 40.871330 -74.607277 16,500 261 294 -64
2022-01-11 14:28:31 GMT 40.871330 -74.607277 16,500 261 294 -64
2022-01-11 14:28:29 GMT 40.871887 -74.603035 16,500 261 294 64
2022-01-11 14:28:26 GMT 40.873379 -74.591614 16,500 261 294 64
2022-01-11 14:28:23 GMT 40.873379 -74.591614 16,500 261 294 0
2022-01-11 14:28:20 GMT 40.873947 -74.586975 16,500 261 294 -64
2022-01-11 14:28:18 GMT 40.874310 -74.584435 16,500 261 294 -64
2022-01-11 14:28:15 GMT 40.875092 -74.578308 16,500 261 294 64
2022-01-11 14:28:12 GMT 40.875751 -74.573013 16,500 261 294 64
2022-01-11 14:28:09 GMT 40.876556 -74.566956 16,500 261 294 64
2022-01-11 14:28:05 GMT 40.877563 -74.559265 16,500 261 294 64
2022-01-11 14:28:01 GMT 40.878387 -74.552795 16,500 261 294 64
2022-01-11 14:27:59 GMT 40.878963 -74.548164 16,500 261 294 64
2022-01-11 14:27:56 GMT 40.879669 -74.542969 16,500 261 294 64
2022-01-11 14:27:53 GMT 40.880360 -74.537552 16,500 261 294 64
2022-01-11 14:27:50 GMT 40.881477 -74.528938 16,500 261 295 64
2022-01-11 14:27:47 GMT 40.881477 -74.528938 16,500 261 295 64
2022-01-11 14:27:44 GMT 40.882050 -74.524353 16,500 261 295 64
2022-01-11 14:27:41 GMT 40.882782 -74.518677 16,500 261 295 128
2022-01-11 14:27:37 GMT 40.883743 -74.511536 16,475 261 295 128
2022-01-11 14:27:34 GMT 40.884750 -74.503784 16,475 261 295 128
2022-01-11 14:27:31 GMT 40.885201 -74.500412 16,475 261 295 192
2022-01-11 14:27:27 GMT 40.886169 -74.492981 16,425 261 295 256
2022-01-11 14:27:24 GMT 40.886948 -74.487427 16,425 260 294 640
2022-01-11 14:27:20 GMT 40.887726 -74.481689 16,375 261 294 896
2022-01-11 14:27:17 GMT 40.888641 -74.474548 16,375 262 293 1600
2022-01-11 14:27:14 GMT 40.889206 -74.470078 16,300 262 293 1536
2022-01-11 14:27:11 GMT 40.890507 -74.455658 15,975 265 291 2176
2022-01-11 14:27:06 GMT 40.890507 -74.455658 15,900 270 288 2624
2022-01-11 14:27:02 GMT 40.890656 -74.448120 14,550 292 235 1408
2022-01-11 14:26:59 GMT 40.890507 -74.442986 15,575 280 278 2240
2022-01-11 14:26:56 GMT 40.890152 -74.438538 15,575 280 278 2176
2022-01-11 14:26:53 GMT 40.889393 -74.432869 15,400 289 271 1920
2022-01-11 14:26:50 GMT 40.888554 -74.428879 15,275 292 269 1856
2022-01-11 14:26:47 GMT 40.886875 -74.422760 15,225 293 266 1728
2022-01-11 14:26:44 GMT 40.885254 -74.417542 15,175 293 261 1344
2022-01-11 14:26:41 GMT 40.883926 -74.413330 15,100 293 261 1344
2022-01-11 14:26:38 GMT 40.881317 -74.404968 15,025 293 257 1344
2022-01-11 14:26:34 GMT 40.881317 -74.404968 14,950 292 254 1408
2022-01-11 14:26:31 GMT 40.879715 -74.399719 14,900 292 253 1408
2022-01-11 14:26:28 GMT 40.878662 -74.396240 14,800 292 248 1408
2022-01-11 14:26:26 GMT 40.877380 -74.391983 14,725 292 241 1344
2022-01-11 14:26:23 GMT 40.876354 -74.388618 14,700 292 242 1408
2022-01-11 14:26:20 GMT 40.875473 -74.385742 14,600 292 235 1408
2022-01-11 14:26:17 GMT 40.874084 -74.380981 14,600 292 237 1344
2022-01-11 14:26:14 GMT 40.872482 -74.375610 14,475 292 229 1408
2022-01-11 14:26:11 GMT 40.871521 -74.372437 14,400 292 226 1472
2022-01-11 14:26:08 GMT 40.870285 -74.368286 14,375 292 217 1408
2022-01-11 14:26:06 GMT 40.869930 -74.366951 14,325 292 222 1408
2022-01-11 14:26:03 GMT 40.868397 -74.361839 14,225 292 217 1408
2022-01-11 14:26:00 GMT 40.867699 -74.359337 14,100 292 211 1408
2022-01-11 14:25:57 GMT 40.866486 -74.355164 14,125 293 205 1408
2022-01-11 14:25:54 GMT 40.865372 -74.351471 13,925 293 205 1408
2022-01-11 14:25:51 GMT 40.864151 -74.347534 13,950 293 205 1408
2022-01-11 14:25:48 GMT 40.863369 -74.344978 13,850 295 196 1344
2022-01-11 14:25:45 GMT 40.861786 -74.340424 13,800 297 194 1344
2022-01-11 14:25:42 GMT 40.860481 -74.337051 13,725 304 186 1408
2022-01-11 14:25:39 GMT 40.859364 -74.334747 13,675 306 185 1344
2022-01-11 14:25:36 GMT 40.857971 -74.332458 13,625 311 181 1344
2022-01-11 14:25:06 GMT 40.813480 -74.350571 13,475 281 227 3904
2022-01-11 14:25:05 GMT 40.813251 -74.349213 12,600 281 227 3904
2022-01-11 14:25:04 GMT 40.813030 -74.347862 13,425 281 227 3904
2022-01-11 14:25:02 GMT 40.812580 -74.345154 12,600 281 227 3904
2022-01-11 14:25:01 GMT 40.812351 -74.343803 12,600 281 227 3904
2022-01-11 14:25:00 GMT 40.812130 -74.342453 12,600 281 227 3904
2022-01-11 14:24:58 GMT 40.811680 -74.339737 12,600 281 227 3904
2022-01-11 14:24:57 GMT 40.811451 -74.338387 12,600 281 227 3904
2022-01-11 14:24:56 GMT 40.811001 -74.335678 12,600 281 227 3904
2022-01-11 14:24:54 GMT 40.810780 -74.334320 12,600 281 227 3904
2022-01-11 14:24:53 GMT 40.810551 -74.332970 12,600 281 227 3904
2022-01-11 14:24:52 GMT 40.810329 -74.331619 12,600 281 227 3904
2022-01-11 14:24:51 GMT 40.809879 -74.328911 13,225 281 227 3904
2022-01-11 14:24:49 GMT 40.809650 -74.327560 12,600 281 227 3904
2022-01-11 14:24:48 GMT 40.809429 -74.326202 12,600 281 227 3904
2022-01-11 14:24:46 GMT 40.808971 -74.323502 12,600 281 227 3904
2022-01-11 14:24:45 GMT 40.808750 -74.322144 12,600 281 227 3904
2022-01-11 14:24:43 GMT 40.808300 -74.319443 12,600 281 227 3904
2022-01-11 14:24:42 GMT 40.808071 -74.318077 12,600 281 227 3904
2022-01-11 14:24:41 GMT 40.807850 -74.316727 12,600 281 227 3904
2022-01-11 14:24:40 GMT 40.807621 -74.315376 12,600 281 227 3904
2022-01-11 14:24:38 GMT 40.807171 -74.312668 12,600 281 227 3904
2022-01-11 14:24:37 GMT 40.806950 -74.311317 12,600 281 227 3904
2022-01-11 14:24:36 GMT 40.806721 -74.309959 12,600 281 227 3904
2022-01-11 14:24:35 GMT 40.805561 -74.307549 12,300 279 226 3904
2022-01-11 14:24:33 GMT 40.805389 -74.306190 12,300 279 226 3904
2022-01-11 14:24:32 GMT 40.805222 -74.304832 12,300 279 226 3904
2022-01-11 14:24:31 GMT 40.805050 -74.303482 12,300 279 226 3904
2022-01-11 14:24:29 GMT 40.804508 -74.300903 11,600 278 226 3904
2022-01-11 14:24:28 GMT 40.804352 -74.299530 11,600 278 226 3904
2022-01-11 14:24:26 GMT 40.804150 -74.296997 11,600 279 228 3904
2022-01-11 14:24:25 GMT 40.803982 -74.295631 11,600 279 228 3904
2022-01-11 14:24:24 GMT 40.803661 -74.292877 11,600 279 228 3904
2022-01-11 14:24:22 GMT 40.803490 -74.291496 11,600 279 228 3904
2022-01-11 14:24:21 GMT 40.803360 -74.290154 11,300 279 229 3904
2022-01-11 14:24:20 GMT 40.803188 -74.288773 11,300 279 229 3904
2022-01-11 14:24:18 GMT 40.802860 -74.286018 11,300 279 229 3904
2022-01-11 14:24:17 GMT 40.802689 -74.284637 11,300 279 229 3904
2022-01-11 14:24:15 GMT 40.802292 -74.282028 10,700 278 230 3904
2022-01-11 14:24:14 GMT 40.802120 -74.280647 10,700 278 230 3904
2022-01-11 14:24:13 GMT 40.801960 -74.279259 10,700 278 230 3904
2022-01-11 14:24:11 GMT 40.801552 -74.276451 10,700 278 229 3904
2022-01-11 14:24:10 GMT 40.801399 -74.275070 10,700 278 229 3904
2022-01-11 14:24:09 GMT 40.801239 -74.273689 10,700 278 229 3904
2022-01-11 14:24:08 GMT 40.800911 -74.271057 10,400 278 230 3904
2022-01-11 14:24:06 GMT 40.800758 -74.269669 10,400 278 230 3904
2022-01-11 14:24:04 GMT 40.800449 -74.266891 10,400 278 230 3904
2022-01-11 14:24:03 GMT 40.800301 -74.265503 10,400 278 230 3904
2022-01-11 14:24:02 GMT 40.800190 -74.264023 10,100 278 229 3904
2022-01-11 14:24:00 GMT 40.799870 -74.261253 10,100 278 229 3904
2022-01-11 14:23:59 GMT 40.799721 -74.259872 10,100 278 229 3904
2022-01-11 14:23:58 GMT 40.799709 -74.258522 9,800 279 231 3904
2022-01-11 14:23:56 GMT 40.799370 -74.255753 9,800 279 231 3904
2022-01-11 14:23:55 GMT 40.799198 -74.254356 9,800 279 231 3904
2022-01-11 14:23:54 GMT 40.799030 -74.252968 9,800 279 231 3904
2022-01-11 14:23:52 GMT 40.798809 -74.250389 9,100 279 233 3904
2022-01-11 14:23:51 GMT 40.798630 -74.248993 9,100 279 233 2848
2022-01-11 14:23:50 GMT 40.798439 -74.247581 9,100 279 233 2848
2022-01-11 14:23:48 GMT 40.798092 -74.244881 9,100 280 235 2848
2022-01-11 14:23:47 GMT 40.797909 -74.243469 9,100 280 235 2848
2022-01-11 14:23:45 GMT 40.797531 -74.240646 9,100 280 235 2848
2022-01-11 14:23:44 GMT 40.797451 -74.239311 8,800 280 236 2848
2022-01-11 14:23:43 GMT 40.797249 -74.237900 8,800 280 236 2848
2022-01-11 14:23:41 GMT 40.796860 -74.235069 8,850 280 236 2848
2022-01-11 14:23:40 GMT 40.796661 -74.233658 8,800 280 236 2848
2022-01-11 14:23:39 GMT 40.796589 -74.232498 8,400 280 239 2848
2022-01-11 14:23:37 GMT 40.796169 -74.229637 8,400 280 239 2848
2022-01-11 14:23:36 GMT 40.795959 -74.228210 8,400 280 239 2848
2022-01-11 14:23:35 GMT 40.795689 -74.226799 8,100 280 239 2848
2022-01-11 14:23:33 GMT 40.795292 -74.223938 8,100 280 239 2848
2022-01-11 14:23:32 GMT 40.795078 -74.222511 8,100 280 239 2848
2022-01-11 14:23:31 GMT 40.794880 -74.221077 8,100 280 239 2848
2022-01-11 14:23:29 GMT 40.794540 -74.218430 7,600 280 242 2848
2022-01-11 14:23:28 GMT 40.794331 -74.216988 7,600 280 242 2848
2022-01-11 14:23:27 GMT 40.794121 -74.215538 7,600 280 242 2848
2022-01-11 14:23:25 GMT 40.793739 -74.212837 7,600 281 244 2848
2022-01-11 14:23:24 GMT 40.793308 -74.209923 7,600 281 244 2848
2022-01-11 14:23:22 GMT 40.793098 -74.208458 7,600 281 244 2848
2022-01-11 14:23:21 GMT 40.792938 -74.207092 7,300 281 245 2848
2022-01-11 14:23:20 GMT 40.792500 -74.204163 7,300 281 245 2848
2022-01-11 14:23:18 GMT 40.792061 -74.201233 7,300 281 245 2848
2022-01-11 14:23:16 GMT 40.791779 -74.199860 7,100 280 246 2848
2022-01-11 14:23:14 GMT 40.791351 -74.196922 7,100 280 246 2848
2022-01-11 14:23:13 GMT 40.791142 -74.195450 7,100 280 246 2848
2022-01-11 14:23:12 GMT 40.790970 -74.193993 7,000 280 246 2848
2022-01-11 14:23:11 GMT 40.790539 -74.191048 7,000 280 246 2848
2022-01-11 14:23:09 GMT 40.790321 -74.189583 7,000 280 246 2848
2022-01-11 14:23:08 GMT 40.790100 -74.188110 7,000 280 246 2848
2022-01-11 14:23:06 GMT 40.789570 -74.185066 6,800 280 245 2848
2022-01-11 14:23:05 GMT 40.789360 -74.183609 6,800 280 245 2848
2022-01-11 14:23:03 GMT 40.788891 -74.180603 6,800 280 244 2848
2022-01-11 14:23:01 GMT 40.788479 -74.177681 6,875 282 247 1088
2022-01-11 14:23:00 GMT 40.788071 -74.174759 6,800 280 244 2848
2022-01-11 14:22:58 GMT 40.787899 -74.173203 6,300 280 243 2848
2022-01-11 14:22:57 GMT 40.787689 -74.171753 6,300 280 243 2848
2022-01-11 14:22:55 GMT 40.787270 -74.168854 6,300 280 243 2848
2022-01-11 14:22:54 GMT 40.786980 -74.167343 6,300 280 239 2848
2022-01-11 14:22:53 GMT 40.786770 -74.165909 6,300 280 239 2848
2022-01-11 14:22:52 GMT 40.786560 -74.164490 6,300 280 239 2848
2022-01-11 14:22:50 GMT 40.786140 -74.161629 6,300 280 239 1088
2022-01-11 14:22:49 GMT 40.785660 -74.160141 5,800 279 236 1088
2022-01-11 14:22:48 GMT 40.785480 -74.158730 5,800 279 236 1088
2022-01-11 14:22:47 GMT 40.785301 -74.157310 5,800 279 236 1088
2022-01-11 14:22:45 GMT 40.785000 -74.154449 5,800 280 235 1088
2022-01-11 14:22:43 GMT 40.784401 -74.150223 5,800 280 235 1088
2022-01-11 14:22:41 GMT 40.784199 -74.148811 5,800 280 235 1088
2022-01-11 14:22:40 GMT 40.783852 -74.147621 5,600 281 237 1088
2022-01-11 14:22:38 GMT 40.783459 -74.144768 5,600 281 237 1088
2022-01-11 14:22:37 GMT 40.783260 -74.143349 5,600 281 237 1088
2022-01-11 14:22:36 GMT 40.783058 -74.141930 5,600 281 237 1088
2022-01-11 14:22:34 GMT 40.782501 -74.139236 5,000 283 237 1088
2022-01-11 14:22:32 GMT 40.782070 -74.136398 5,000 283 237 1088
2022-01-11 14:22:30 GMT 40.781872 -74.133743 5,000 288 239 1088
2022-01-11 14:22:29 GMT 40.781582 -74.132339 5,000 288 239 1088
2022-01-11 14:22:27 GMT 40.780979 -74.129539 5,000 288 239 1088
2022-01-11 14:22:26 GMT 40.781269 -74.128448 4,800 294 244 1088
2022-01-11 14:22:25 GMT 40.780842 -74.127068 4,800 294 244 1088
2022-01-11 14:22:24 GMT 40.780418 -74.125687 4,800 294 244 1088
2022-01-11 14:22:23 GMT 40.779572 -74.122940 4,800 294 244 1088
2022-01-11 14:22:21 GMT 40.779510 -74.121758 4,500 300 244 1088
2022-01-11 14:22:19 GMT 40.778461 -74.119118 4,500 300 244 1088
2022-01-11 14:22:18 GMT 40.777931 -74.117798 4,500 300 244 1088
2022-01-11 14:22:16 GMT 40.777279 -74.115227 4,200 308 242 1088
2022-01-11 14:22:15 GMT 40.776642 -74.114021 4,200 308 242 1088
2022-01-11 14:22:13 GMT 40.775372 -74.111588 4,200 308 242 1088
2022-01-11 14:22:12 GMT 40.775101 -74.110031 3,700 318 235 1088
2022-01-11 14:22:11 GMT 40.774361 -74.108978 3,700 318 235 1088
2022-01-11 14:22:09 GMT 40.772881 -74.106880 3,700 318 235 1088
2022-01-11 14:22:08 GMT 40.772942 -74.104858 3,700 330 233 1088
2022-01-11 14:22:07 GMT 40.772049 -74.104050 3,700 330 233 1088
2022-01-11 14:22:05 GMT 40.770279 -74.102432 3,700 330 233 1088
2022-01-11 14:22:04 GMT 40.769402 -74.101624 3,700 330 233 1088
2022-01-11 14:22:03 GMT 40.769279 -74.099571 3,400 342 236 1088
2022-01-11 14:22:01 GMT 40.767250 -74.098518 3,400 342 236 1088
2022-01-11 14:22:00 GMT 40.766232 -74.098000 3,400 342 236 1088
2022-01-11 14:21:59 GMT 40.765652 -74.096397 3,400 350 236 1088
2022-01-11 14:21:57 GMT 40.763519 -74.095802 3,400 350 236 1088
2022-01-11 14:21:56 GMT 40.762451 -74.095497 3,400 350 236 1088
2022-01-11 14:21:55 GMT 40.761379 -74.095200 3,400 350 236 1088
2022-01-11 14:21:53 GMT 40.759190 -74.094276 3,400 357 226 1088
2022-01-11 14:21:52 GMT 40.758148 -74.094139 3,400 357 226 1088
2022-01-11 14:21:51 GMT 40.757111 -74.094002 3,400 357 226 -128
2022-01-11 14:21:50 GMT 40.756069 -74.093857 3,400 357 226 -128
2022-01-11 14:21:48 GMT 40.753689 -74.093407 3,200 5 211 -128
2022-01-11 14:21:46 GMT 40.751732 -74.093460 3,200 5 211 -128
2022-01-11 14:21:45 GMT 40.750568 -74.092590 3,200 15 209 -128
2022-01-11 14:21:44 GMT 40.749619 -74.092857 3,200 15 209 -128
2022-01-11 14:21:43 GMT 40.747730 -74.093384 3,200 15 209 -128
2022-01-11 14:21:41 GMT 40.746792 -74.093651 3,200 15 209 -128
2022-01-11 14:21:40 GMT 40.745998 -74.093040 3,000 23 225 -128
2022-01-11 14:21:38 GMT 40.744080 -74.094101 3,000 23 225 -128
2022-01-11 14:21:37 GMT 40.743118 -74.094627 3,000 23 225 -128
2022-01-11 14:21:36 GMT 40.742161 -74.095154 3,000 23 225 -128
2022-01-11 14:21:35 GMT 40.741241 -74.095596 2,900 25 229 -128
2022-01-11 14:21:33 GMT 40.739361 -74.096741 2,900 29 233 -128
2022-01-11 14:21:32 GMT 40.738430 -74.097382 2,900 30 233 -128
2022-01-11 14:21:31 GMT 40.737492 -74.098030 2,700 33 234 -128
2022-01-11 14:21:30 GMT 40.736568 -74.098747 2,700 35 234 -128
2022-01-11 14:21:28 GMT 40.734760 -74.100311 2,700 39 233 -128
2022-01-11 14:21:26 GMT 40.733059 -74.101936 2,675 43 235 -128
2022-01-11 14:21:25 GMT 40.732201 -74.102829 2,600 46 233 -128
2022-01-11 14:21:24 GMT 40.731400 -74.103798 2,600 48 232 -128
2022-01-11 14:21:23 GMT 40.730640 -74.104797 2,600 49 231 -128
2022-01-11 14:21:21 GMT 40.729198 -74.106819 2,500 51 231 -128
2022-01-11 14:21:20 GMT 40.728531 -74.107880 2,500 52 231 -128
2022-01-11 14:21:18 GMT 40.727161 -74.110168 2,500 53 222 -128
2022-01-11 14:21:17 GMT 40.726528 -74.111259 2,475 53 220 -128
2022-01-11 14:21:15 GMT 40.725330 -74.113358 2,475 53 221 -128
2022-01-11 14:21:14 GMT 40.724709 -74.114464 2,475 52 219 -128
2022-01-11 14:21:13 GMT 40.724129 -74.115463 2,475 52 224 -128
2022-01-11 14:21:11 GMT 40.722889 -74.117653 2,450 52 221 -128
2022-01-11 14:21:10 GMT 40.722221 -74.118813 2,450 52 213 -128
2022-01-11 14:21:09 GMT 40.721642 -74.119812 2,500 52 216 -96
2022-01-11 14:21:08 GMT 40.720440 -74.121918 2,500 52 213 -96
2022-01-11 14:21:06 GMT 40.719769 -74.123070 2,500 52 204 -96
2022-01-11 14:21:05 GMT 40.719200 -74.124046 2,500 52 204 -96
2022-01-11 14:21:03 GMT 40.718109 -74.125862 2,425 52 213 0
2022-01-11 14:21:02 GMT 40.717522 -74.126930 2,425 52 212 0
2022-01-11 14:21:00 GMT 40.716370 -74.128967 2,425 51 210 1184
2022-01-11 14:20:59 GMT 40.715740 -74.129959 2,400 52 207 1184
2022-01-11 14:20:58 GMT 40.715179 -74.130943 2,400 52 207 1184
2022-01-11 14:20:57 GMT 40.714020 -74.132942 2,300 53 200 1184
2022-01-11 14:20:55 GMT 40.713428 -74.134003 2,300 53 193 1184
2022-01-11 14:20:54 GMT 40.712921 -74.134903 2,325 53 193 1184
2022-01-11 14:20:53 GMT 40.712391 -74.135872 2,250 52 191 1184
2022-01-11 14:20:51 GMT 40.711288 -74.137802 2,250 52 181 128
2022-01-11 14:20:49 GMT 40.710300 -74.139526 2,075 53 178 128
2022-01-11 14:20:48 GMT 40.709789 -74.140419 2,075 53 175 128
2022-01-11 14:20:47 GMT 40.709270 -74.141296 2,075 54 170 128
2022-01-11 14:20:45 GMT 40.708359 -74.142998 2,075 53 168 128
2022-01-11 14:20:44 GMT 40.707890 -74.143951 2,075 52 161 128
2022-01-11 14:20:42 GMT 40.706921 -74.145592 2,000 53 150 128
2022-01-11 14:20:41 GMT 40.706558 -74.146149 2,000 54 163 128
2022-01-11 14:20:40 GMT 40.706310 -74.146759 1,750 52 177 128
2022-01-11 14:20:39 GMT 40.705769 -74.147659 1,750 53 171 128
2022-01-11 14:20:37 GMT 40.704800 -74.149422 1,750 52 158 128
2022-01-11 14:20:36 GMT 40.704208 -74.150299 1,750 56 143 128
2022-01-11 14:20:35 GMT 40.703838 -74.151001 1,750 56 143 128
2022-01-11 14:20:34 GMT 40.703072 -74.152473 1,625 54 141 128
2022-01-11 14:20:32 GMT 40.702660 -74.153236 1,625 54 137 128
2022-01-11 14:20:31 GMT 40.702290 -74.153954 1,625 53 136 128
2022-01-11 14:20:30 GMT 40.701920 -74.154572 1,475 53 140 128
2022-01-11 14:20:29 GMT 40.701160 -74.155869 1,475 53 146 128
2022-01-11 14:20:27 GMT 40.700779 -74.156548 1,200 52 148 128
2022-01-11 14:20:26 GMT 40.700310 -74.157272 1,200 53 143 128
2022-01-11 14:20:25 GMT 40.699558 -74.158752 1,200 48 137 128
2022-01-11 14:20:24 GMT 40.699108 -74.159348 1,200 50 136 128
2022-01-11 14:20:22 GMT 40.698738 -74.160011 1,200 48 137 128
2022-01-11 14:20:21 GMT 40.698299 -74.160591 1,025 49 137 128
2022-01-11 14:20:19 GMT 40.697479 -74.161880 1,025 49 134 128
2022-01-11 14:20:18 GMT 40.697071 -74.162468 1,025 48 134 128
2022-01-11 14:20:17 GMT 40.696209 -74.163658 825 47 133 128
2022-01-11 14:20:15 GMT 40.695820 -74.164261 825 46 133 128
2022-01-11 14:20:14 GMT 40.695419 -74.164902 25 43 132 128
2022-01-11 14:20:12 GMT 40.694550 -74.165993 25 39 134 128
2022-01-11 14:20:11 GMT 40.694080 -74.166512 25 38 133 128
2022-01-11 14:20:10 GMT 40.693630 -74.166992 25 37 136 128
2022-01-11 14:20:09 GMT 40.692631 -74.168007 25 34 132 128
2022-01-11 14:20:07 GMT 40.692162 -74.168503 25 30 132 128
2022-01-11 14:20:05 GMT 40.691120 -74.169380 25 26 127 128
2022-01-11 14:20:03 GMT 40.690090 -74.170113 25 24 132 128
2022-01-11 14:20:02 GMT 40.689541 -74.170441 25 25 133 128
2022-01-11 14:20:01 GMT 40.688980 -74.170761 -175 25 131 128
2022-01-11 14:20:00 GMT 40.687889 -74.171440 -175 25 124 128
2022-01-11 14:19:58 GMT 40.687401 -74.171768 -350 24 129 128
2022-01-11 14:19:57 GMT 40.686852 -74.172081 -350 25 130 128
2022-01-11 14:19:55 GMT 40.685791 -74.172752 -550 26 134 128
2022-01-11 14:19:54 GMT 40.685268 -74.173088 -550 26 136 128
2022-01-11 14:19:53 GMT 40.684738 -74.173462 -550 25 137 128
2022-01-11 14:19:52 GMT 40.684170 -74.173798 -550 26 134 128
2022-01-11 14:19:50 GMT 40.683071 -74.174522 -550 26 129 0
2022-01-11 14:19:49 GMT 40.682549 -74.174850 -550 25 129 -64
2022-01-11 14:19:48 GMT 40.682011 -74.175217 -550 25 123 -64
2022-01-11 14:19:47 GMT 40.681492 -74.175529 -550 26 119 -64
2022-01-11 14:19:45 GMT 40.680511 -74.176163 -550 26 109 -64
2022-01-11 14:19:44 GMT 40.680061 -74.176468 -550 25 104 -64
2022-01-11 14:19:43 GMT 40.679619 -74.176712 -550 26 100 -64
2022-01-11 14:19:41 GMT 40.678822 -74.177254 0 25 90 -64
2022-01-11 14:19:39 GMT 40.678082 -74.177750 0 24 78 -64
2022-01-11 14:19:37 GMT 40.677391 -74.178123 0 27 63 0
2022-01-11 14:19:36 GMT 40.676849 -74.178482 0 26 48
2022-01-11 14:19:34 GMT 40.676601 -74.178673 0 24 39
2022-01-11 14:19:33 GMT 40.676380 -74.178802 0 24 30
2022-01-11 14:19:32 GMT 40.676071 -74.179001 0 22 18
2022-01-11 14:19:30 GMT 40.675930 -74.179039 0 31 12
2022-01-11 14:19:29 GMT 40.675831 -74.179092 0 38 8
2022-01-11 14:19:27 GMT 40.675770 -74.179153 0 27 4
2022-01-11 14:19:26 GMT 40.675758 -74.179192 0 21 4
2022-01-11 14:19:25 GMT 40.675739 -74.179199 0 26 4
2022-01-11 14:19:23 GMT 40.675678 -74.179199 0 26 2
2022-01-11 14:19:22 GMT 40.675671 -74.179222 0 26 0
2022-01-11 14:19:18 GMT 40.675678 -74.179230 0 30 2
2022-01-11 14:19:17 GMT 40.675659 -74.179207 0 32 5
2022-01-11 14:19:16 GMT 40.675652 -74.179260 0 17 4
2022-01-11 14:19:15 GMT 40.675640 -74.179268 0 18 4
2022-01-11 14:19:13 GMT 40.675610 -74.179283 0 24 4
2022-01-11 14:19:12 GMT 40.675591 -74.179283 0 24 4
2022-01-11 14:19:11 GMT 40.675591 -74.179268 0 37 6
2022-01-11 14:19:10 GMT 40.675549 -74.179260 0 58 4
2022-01-11 14:19:08 GMT 40.675510 -74.179283 0 73 5
2022-01-11 14:19:07 GMT 40.675468 -74.179321 0 58 3
2022-01-11 14:19:05 GMT 40.675480 -74.179359 0 109 4
2022-01-11 14:19:04 GMT 40.675468 -74.179359 0 117 6
2022-01-11 14:19:03 GMT 40.675510 -74.179367 0 103 7
2022-01-11 14:19:01 GMT 40.675510 -74.179443 0 110 10
2022-01-11 14:19:00 GMT 40.675499 -74.179482 0 116 11
2022-01-11 14:18:59 GMT 40.675529 -74.179543 0 116 11
2022-01-11 14:18:57 GMT 40.675579 -74.179657 0 116 10
2022-01-11 14:18:56 GMT 40.675598 -74.179733 0 118 9
2022-01-11 14:18:55 GMT 40.675629 -74.179802 0 120 8
2022-01-11 14:18:54 GMT 40.675659 -74.179878 0 118 7
2022-01-11 14:18:52 GMT 40.675671 -74.179916 0 125 7
2022-01-11 14:18:51 GMT 40.675690 -74.179977 0 129 8
2022-01-11 14:18:49 GMT 40.675720 -74.180023 0 132 8
2022-01-11 14:18:48 GMT 40.675758 -74.180122 0 139 6
2022-01-11 14:18:46 GMT 40.675789 -74.180138 0 132 5
2022-01-11 14:18:45 GMT 40.675812 -74.180168 0 132 4
2022-01-11 14:18:44 GMT 40.675850 -74.180206 0 126 4
2022-01-11 14:18:42 GMT 40.675861 -74.180222 0 127 4
2022-01-11 14:18:41 GMT 40.675869 -74.180237 0 124 4
2022-01-11 14:18:40 GMT 40.675941 -74.180328 0 115 1
2022-01-11 14:18:37 GMT 40.675949 -74.180328 0 115 1
2022-01-11 14:18:36 GMT 40.675949 -74.180359 0 115 1
2022-01-11 14:18:35 GMT 40.675999 -74.180420 0 115 0
2022-01-11 14:18:33 GMT 40.675999 -74.180420 0 115 0
2022-01-11 14:18:32 GMT 40.675999 -74.180443 0 115 1
2022-01-11 14:18:30 GMT 40.675991 -74.180397 0 115 1
2022-01-11 14:18:28 GMT 40.675961 -74.180351 0 115 0
2022-01-11 14:18:26 GMT 40.675941 -74.180321 0 115 0
2022-01-11 14:18:22 GMT 40.675961 -74.180344 0 115 0
2022-01-11 14:18:20 GMT 40.675968 -74.180344 0 115 0
2022-01-11 14:18:18 GMT 40.675961 -74.180344 0 115 0
2022-01-11 14:18:17 GMT 40.675968 -74.180344 0 115 0
2022-01-11 14:18:16 GMT 40.675961 -74.180321 0 115 0
2022-01-11 14:18:14 GMT 40.675961 -74.180344 0 115 0
2022-01-11 14:18:12 GMT 40.675961 -74.180328 0 115 0
2022-01-11 14:18:10 GMT 40.675968 -74.180344 0 115 0
2022-01-11 14:18:09 GMT 40.675961 -74.180344 0 115 0
2022-01-11 14:18:08 GMT 40.675968 -74.180344 0 115 0
2022-01-11 14:18:06 GMT 40.675961 -74.180351 0 115 1
2022-01-11 14:18:04 GMT 40.675961 -74.180328 0 115 0
2022-01-11 14:18:02 GMT 40.675961 -74.180321 0 115 0
2022-01-11 14:18:00 GMT 40.675968 -74.180328 0 115 0
2022-01-11 14:17:59 GMT 40.675968 -74.180321 0 115 0
2022-01-11 14:17:58 GMT 40.675968 -74.180328 0 116 0
2022-01-11 14:17:57 GMT 40.675961 -74.180344 0 116 0
2022-01-11 14:17:56 GMT 40.675968 -74.180344 0 116 0
2022-01-11 14:17:54 GMT 40.675961 -74.180328 0 116 0
2022-01-11 14:17:53 GMT 40.675949 -74.180321 0 116 0
2022-01-11 14:17:52 GMT 40.675968 -74.180328 0 116 1
2022-01-11 14:17:50 GMT 40.675961 -74.180321 0 116 1
2022-01-11 14:17:48 GMT 40.675968 -74.180328 0 117 1
2022-01-11 14:17:47 GMT 40.675949 -74.180321 0 118 1
2022-01-11 14:17:46 GMT 40.675949 -74.180328 0 120 0
2022-01-11 14:17:44 GMT 40.675941 -74.180313 0 127 3
2022-01-11 14:17:43 GMT 40.675941 -74.180321 0 136 3
2022-01-11 14:17:42 GMT 40.675930 -74.180328 0 142 5
2022-01-11 14:17:41 GMT 40.675961 -74.180367 0 157 7
2022-01-11 14:17:39 GMT 40.675968 -74.180389 0 168 9
2022-01-11 14:17:38 GMT 40.676029 -74.180428 0 176 7
2022-01-11 14:17:36 GMT 40.676079 -74.180481 0 197 7
2022-01-11 14:17:35 GMT 40.676109 -74.180489 0 198 8
2022-01-11 14:17:34 GMT 40.676128 -74.180473 0 196 9
2022-01-11 14:17:33 GMT 40.676220 -74.180450 0 197 9
2022-01-11 14:17:31 GMT 40.676231 -74.180412 0 195 10
2022-01-11 14:17:30 GMT 40.676270 -74.180420 0 198 10
2022-01-11 14:17:28 GMT 40.676369 -74.180367 0 204 9
2022-01-11 14:17:27 GMT 40.676418 -74.180359 0 207 9
2022-01-11 14:17:25 GMT 40.676491 -74.180328 0 210 10
2022-01-11 14:17:24 GMT 40.676510 -74.180313 0 209 12
2022-01-11 14:17:23 GMT 40.676559 -74.180267 0 204 11
2022-01-11 14:17:22 GMT 40.676601 -74.180206 0 197 10
2022-01-11 14:17:20 GMT 40.676682 -74.180168 0 203 12
2022-01-11 14:17:19 GMT 40.676739 -74.180161 0 207 12
2022-01-11 14:17:17 GMT 40.676842 -74.180107 0 207 11
2022-01-11 14:17:15 GMT 40.676929 -74.180031 0 205 12
2022-01-11 14:17:14 GMT 40.676971 -74.179993 0 206 12
2022-01-11 14:17:13 GMT 40.677052 -74.179977 0 213 11
2022-01-11 14:17:12 GMT 40.677101 -74.179962 0 210 10
2022-01-11 14:17:11 GMT 40.677090 -74.179893 0 200 13
2022-01-11 14:17:09 GMT 40.677238 -74.179848 0 207 11
2022-01-11 14:17:08 GMT 40.677261 -74.179817 0 207 12
2022-01-11 14:17:07 GMT 40.677311 -74.179810 0 208 14
2022-01-11 14:17:05 GMT 40.677410 -74.179680 0 197 12
2022-01-11 14:17:04 GMT 40.677471 -74.179703 0 205 12
2022-01-11 14:17:03 GMT 40.677528 -74.179672 0 208 11
2022-01-11 14:17:01 GMT 40.677631 -74.179619 0 207 11
2022-01-11 14:17:00 GMT 40.677662 -74.179588 0 206 12
2022-01-11 14:16:59 GMT 40.677711 -74.179550 0 206 11
2022-01-11 14:16:58 GMT 40.677799 -74.179497 0 207 12
2022-01-11 14:16:56 GMT 40.677841 -74.179466 0 205 13
2022-01-11 14:16:55 GMT 40.677891 -74.179413 0 206 13
2022-01-11 14:16:53 GMT 40.677990 -74.179359 0 209 13
2022-01-11 14:16:52 GMT 40.678051 -74.179329 0 210 13
2022-01-11 14:16:51 GMT 40.678150 -74.179253 0 208 14
2022-01-11 14:16:49 GMT 40.678188 -74.179192 0 200 16
2022-01-11 14:16:48 GMT 40.678268 -74.179161 0 203 15
2022-01-11 14:16:47 GMT 40.678341 -74.179108 0 201 14
2022-01-11 14:16:46 GMT 40.678391 -74.179077 0 201 15
2022-01-11 14:16:44 GMT 40.678501 -74.179031 0 202 16
2022-01-11 14:16:43 GMT 40.678581 -74.178993 0 206 15
2022-01-11 14:16:41 GMT 40.678711 -74.178886 0 200 14
2022-01-11 14:16:40 GMT 40.678761 -74.178871 0 203 15
2022-01-11 14:16:39 GMT 40.678822 -74.178848 0 205 16
2022-01-11 14:16:37 GMT 40.678940 -74.178757 0 204 16
2022-01-11 14:16:36 GMT 40.678989 -74.178726 0 205 18
2022-01-11 14:16:35 GMT 40.679081 -74.178688 0 206 17
2022-01-11 14:16:33 GMT 40.679218 -74.178574 0 204 16
2022-01-11 14:16:32 GMT 40.679279 -74.178551 0 206 17
2022-01-11 14:16:30 GMT 40.679420 -74.178452 0 204 17
2022-01-11 14:16:28 GMT 40.679562 -74.178337 0 201 17
2022-01-11 14:16:27 GMT 40.679619 -74.178299 0 199 18
2022-01-11 14:16:26 GMT 40.679699 -74.178268 0 202 17
2022-01-11 14:16:24 GMT 40.679859 -74.178200 0 204 17
2022-01-11 14:16:23 GMT 40.679932 -74.178162 0 207 16
2022-01-11 14:16:21 GMT 40.680080 -74.178093 0 212 16
2022-01-11 14:16:20 GMT 40.680130 -74.178040 0 211 17
2022-01-11 14:16:18 GMT 40.680260 -74.177910 0 205 17
2022-01-11 14:16:17 GMT 40.680321 -74.177887 0 208 18
2022-01-11 14:16:16 GMT 40.680382 -74.177834 0 205 19
2022-01-11 14:16:15 GMT 40.680538 -74.177711 0 201 17
2022-01-11 14:16:13 GMT 40.680618 -74.177658 0 201 17
2022-01-11 14:16:12 GMT 40.680698 -74.177658 0 206 17
2022-01-11 14:16:10 GMT 40.680828 -74.177559 0 203 17
2022-01-11 14:16:09 GMT 40.680939 -74.177551 0 211 16
2022-01-11 14:16:08 GMT 40.680981 -74.177498 0 209 17
2022-01-11 14:16:07 GMT 40.681042 -74.177460 0 210 18
2022-01-11 14:16:05 GMT 40.681179 -74.177338 0 207 18
2022-01-11 14:16:04 GMT 40.681252 -74.177292 0 206 19
2022-01-11 14:16:03 GMT 40.681332 -74.177231 0 204 17
2022-01-11 14:16:02 GMT 40.681469 -74.177139 0 203 17
2022-01-11 14:16:00 GMT 40.681541 -74.177109 0 204 18
2022-01-11 14:15:59 GMT 40.681622 -74.177071 0 208 17
2022-01-11 14:15:57 GMT 40.681770 -74.176979 0 209 18
2022-01-11 14:15:56 GMT 40.681831 -74.176918 0 207 19
2022-01-11 14:15:55 GMT 40.681900 -74.176849 0 204 19
2022-01-11 14:15:53 GMT 40.682060 -74.176773 0 206 20
2022-01-11 14:15:51 GMT 40.682220 -74.176643 0 201 17
2022-01-11 14:15:50 GMT 40.682308 -74.176620 0 204 17
2022-01-11 14:15:49 GMT 40.682381 -74.176590 0 207 16
2022-01-11 14:15:47 GMT 40.682522 -74.176468 0 201 15
2022-01-11 14:15:46 GMT 40.682579 -74.176460 0 207 17
2022-01-11 14:15:44 GMT 40.682720 -74.176369 0 209 17
2022-01-11 14:15:43 GMT 40.682789 -74.176323 0 208 16
2022-01-11 14:15:42 GMT 40.682911 -74.176208 0 202 17
2022-01-11 14:15:40 GMT 40.682991 -74.176178 0 204 17
2022-01-11 14:15:39 GMT 40.683060 -74.176140 0 203 16
2022-01-11 14:15:38 GMT 40.683140 -74.176102 0 206 15
2022-01-11 14:15:37 GMT 40.683189 -74.176064 0 205 16
2022-01-11 14:15:35 GMT 40.683319 -74.175980 0 205 16
2022-01-11 14:15:34 GMT 40.683399 -74.175941 0 208 16
2022-01-11 14:15:33 GMT 40.683472 -74.175903 0 211 16
2022-01-11 14:15:31 GMT 40.683590 -74.175781 0 202 14
2022-01-11 14:15:30 GMT 40.683632 -74.175751 0 200 16
2022-01-11 14:15:29 GMT 40.683701 -74.175728 0 203 16
2022-01-11 14:15:27 GMT 40.683830 -74.175652 0 206 15
2022-01-11 14:15:26 GMT 40.683899 -74.175621 0 208 16
2022-01-11 14:15:25 GMT 40.683971 -74.175560 0 204 14
2022-01-11 14:15:24 GMT 40.684029 -74.175529 0 207 14
2022-01-11 14:15:22 GMT 40.684151 -74.175468 0 214 15
2022-01-11 14:15:20 GMT 40.684261 -74.175331 0 202 14
2022-01-11 14:15:19 GMT 40.684319 -74.175278 0 199 13
2022-01-11 14:15:18 GMT 40.684429 -74.175240 0 202 15
2022-01-11 14:15:16 GMT 40.684502 -74.175217 0 206 14
2022-01-11 14:15:15 GMT 40.684551 -74.175171 0 203 14
2022-01-11 14:15:13 GMT 40.684669 -74.175110 0 204 13
2022-01-11 14:15:12 GMT 40.684711 -74.175072 0 203 14
2022-01-11 14:15:11 GMT 40.684818 -74.175011 0 203 15
2022-01-11 14:15:09 GMT 40.684879 -74.174957 0 202 14
2022-01-11 14:15:08 GMT 40.684959 -74.174919 0 203 13
2022-01-11 14:15:06 GMT 40.685040 -74.174873 0 201 17
2022-01-11 14:15:05 GMT 40.685108 -74.174843 0 204 17
2022-01-11 14:15:04 GMT 40.685188 -74.174820 0 210 17
2022-01-11 14:15:03 GMT 40.685341 -74.174698 0 209 15
2022-01-11 14:15:01 GMT 40.685390 -74.174652 0 207 16
2022-01-11 14:15:00 GMT 40.685440 -74.174606 0 205 17
2022-01-11 14:14:58 GMT 40.685589 -74.174522 0 205 16
2022-01-11 14:14:57 GMT 40.685650 -74.174492 0 206 17
2022-01-11 14:14:55 GMT 40.685791 -74.174393 0 205 16
2022-01-11 14:14:54 GMT 40.685860 -74.174347 0 208 16
2022-01-11 14:14:53 GMT 40.685928 -74.174309 0 207 16
2022-01-11 14:14:52 GMT 40.685989 -74.174232 0 201 16
2022-01-11 14:14:51 GMT 40.686062 -74.174217 0 206 16
2022-01-11 14:14:49 GMT 40.686180 -74.174133 0 205 16
2022-01-11 14:14:48 GMT 40.686260 -74.174080 0 203 15
2022-01-11 14:14:46 GMT 40.686378 -74.174011 0 203 15
2022-01-11 14:14:45 GMT 40.686440 -74.173973 0 202 16
2022-01-11 14:14:44 GMT 40.686588 -74.173912 0 208 16
2022-01-11 14:14:43 GMT 40.686649 -74.173859 0 207 15
2022-01-11 14:14:41 GMT 40.686722 -74.173820 0 209 15
2022-01-11 14:14:40 GMT 40.686829 -74.173721 0 204 16
2022-01-11 14:14:38 GMT 40.686890 -74.173698 0 206 17
2022-01-11 14:14:37 GMT 40.686970 -74.173637 0 204 16
2022-01-11 14:14:36 GMT 40.687038 -74.173592 0 205 14
2022-01-11 14:14:34 GMT 40.687149 -74.173531 0 207 15
2022-01-11 14:14:33 GMT 40.687210 -74.173492 0 206 15
2022-01-11 14:14:31 GMT 40.687340 -74.173393 0 202 15
2022-01-11 14:14:30 GMT 40.687401 -74.173370 0 206 16
2022-01-11 14:14:29 GMT 40.687538 -74.173279 0 205 14
2022-01-11 14:14:27 GMT 40.687599 -74.173248 0 209 15
2022-01-11 14:14:25 GMT 40.687721 -74.173141 0 201 14
2022-01-11 14:14:23 GMT 40.687840 -74.173073 0 200 14
2022-01-11 14:14:22 GMT 40.687901 -74.173050 0 203 14
2022-01-11 14:14:21 GMT 40.687988 -74.172997 0 204 11
2022-01-11 14:14:19 GMT 40.688068 -74.172958 0 206 13
2022-01-11 14:14:18 GMT 40.688190 -74.172890 0 209 12
2022-01-11 14:14:16 GMT 40.688229 -74.172852 0 206 14
2022-01-11 14:14:15 GMT 40.688271 -74.172798 0 200 15
2022-01-11 14:14:13 GMT 40.688400 -74.172752 0 205 14
2022-01-11 14:14:12 GMT 40.688461 -74.172699 0 205 13
2022-01-11 14:14:11 GMT 40.688530 -74.172684 0 207 13
2022-01-11 14:14:09 GMT 40.688622 -74.172592 0 201 13
2022-01-11 14:14:08 GMT 40.688679 -74.172577 0 205 13
2022-01-11 14:14:06 GMT 40.688789 -74.172501 0 202 14
2022-01-11 14:14:05 GMT 40.688850 -74.172478 0 206 14
2022-01-11 14:14:04 GMT 40.688889 -74.172440 0 205 15
2022-01-11 14:14:02 GMT 40.689041 -74.172363 0 206 13
2022-01-11 14:14:01 GMT 40.689110 -74.172318 0 205 13
2022-01-11 14:13:59 GMT 40.689251 -74.172249 0 205 14

Making use of Plane Finder data

You are free to use the raw flight data, aircraft information and images provided in this report for your own purposes provided the data is correctly attributed to Plane Finder. We ask that you please credit Plane Finder and link to planefinder.net in close proximity to the content.

Optionally one of the following logos (no smaller then 150x24px) can be used and must link to planefinder.net

Embedding the Plane Finder map

You are welcome to embed the Plane Finder playback map on your website to offer visitors a more interactive experience. We suggest using the following HTML code:

<iframe src="//planefinder.net/data/report/UA3323-N633RW-7700-squawk-2022-01-11/map" width="800" height="600" seamless="seamless"></iframe>

Where our data comes from

Plane Finder has a global network of data feeds and antenna radars that receive data broadcast directly from aircraft. The primary technologies used are ADS-B and MLAT. We also show feeds from the FAA and a FLARM glider feed.

Click here to find out more about the Plane Finder network.

How we collect our data